<?xml version='1.0' encoding='UTF-8'?><gpx version="1.1" creator="JPX - https://github.com/jenetics/jpx" xmlns="http://www.topografix.com/GPX/1/1"><trk><trkseg><trkpt lat="-25.000828429246223" lon="-53.439910046588224"><ele>694.3333333333334</ele><time>2026-03-29T12:18:24.015Z</time></trkpt><trkpt lat="-25.000894337943077" lon="-53.439899463616875"><ele>694.6666666666667</ele><time>2026-03-29T12:18:33.015Z</time></trkpt><trkpt lat="-25.000923882817837" lon="-53.439790316038476"><ele>695.0</ele><time>2026-03-29T12:19:52.016Z</time></trkpt><trkpt lat="-25.00093757451387" lon="-53.43970432569113"><ele>695.3333333333334</ele><time>2026-03-29T12:20:02.016Z</time></trkpt><trkpt lat="-25.000942268252963" lon="-53.43963439679372"><ele>695.6666666666666</ele><time>2026-03-29T12:20:04.016Z</time></trkpt><trkpt lat="-25.000920459306816" lon="-53.439548123346796"><ele>696.0</ele><time>2026-03-29T12:20:06.016Z</time></trkpt><trkpt lat="-25.000915522474017" lon="-53.43946011719657"><ele>696.0</ele><time>2026-03-29T12:20:09.016Z</time></trkpt><trkpt lat="-25.000871384734154" lon="-53.439345729903266"><ele>696.0</ele><time>2026-03-29T12:20:11.016Z</time></trkpt><trkpt lat="-25.00080994104541" lon="-53.43924961509234"><ele>696.0</ele><time>2026-03-29T12:20:13.016Z</time></trkpt><trkpt lat="-25.000732127389234" lon="-53.43918229669305"><ele>696.0</ele><time>2026-03-29T12:20:18.016Z</time></trkpt><trkpt lat="-25.00064348773481" lon="-53.439147164202964"><ele>696.0</ele><time>2026-03-29T12:20:21.016Z</time></trkpt><trkpt lat="-25.000574524982532" lon="-53.43909575315594"><ele>694.5</ele><time>2026-03-29T12:20:24.016Z</time></trkpt><trkpt lat="-25.00054393494223" lon="-53.43902680763735"><ele>693.0</ele><time>2026-03-29T12:20:27.016Z</time></trkpt><trkpt lat="-25.000512541584314" lon="-53.43894666763395"><ele>691.5</ele><time>2026-03-29T12:20:34.016Z</time></trkpt><trkpt lat="-25.000453391269108" lon="-53.438889971113674"><ele>690.0</ele><time>2026-03-29T12:20:36.016Z</time></trkpt><trkpt lat="-25.000395123934755" lon="-53.438850941306924"><ele>688.5</ele><time>2026-03-29T12:20:37.016Z</time></trkpt><trkpt lat="-25.000333661432787" lon="-53.43877504405974"><ele>687.0</ele><time>2026-03-29T12:20:39.016Z</time></trkpt><trkpt lat="-25.000243464769497" lon="-53.43875048579286"><ele>685.5</ele><time>2026-03-29T12:20:41.016Z</time></trkpt><trkpt lat="-25.000194539128472" lon="-53.43867244032738"><ele>684.0</ele><time>2026-03-29T12:20:44.016Z</time></trkpt><trkpt lat="-25.000172093495248" lon="-53.43859444510878"><ele>682.5</ele><time>2026-03-29T12:20:47.016Z</time></trkpt><trkpt lat="-24.999905976871844" lon="-53.43856922452854"><ele>681.0</ele><time>2026-03-29T12:20:53.016Z</time></trkpt><trkpt lat="-24.999809524767382" lon="-53.438542232141714"><ele>681.0</ele><time>2026-03-29T12:20:54.016Z</time></trkpt><trkpt lat="-24.9997148934421" lon="-53.43851337860027"><ele>681.0</ele><time>2026-03-29T12:20:55.016Z</time></trkpt><trkpt lat="-24.99964436234355" lon="-53.43849520184229"><ele>681.0</ele><time>2026-03-29T12:20:56.016Z</time></trkpt><trkpt lat="-24.99957748717751" lon="-53.43848239560412"><ele>681.0</ele><time>2026-03-29T12:20:57.016Z</time></trkpt><trkpt lat="-24.99935459855172" lon="-53.438479120866"><ele>681.0</ele><time>2026-03-29T12:21:00.016Z</time></trkpt><trkpt lat="-24.99926928812974" lon="-53.43843284562356"><ele>681.0</ele><time>2026-03-29T12:21:01.016Z</time></trkpt><trkpt lat="-24.999178989694993" lon="-53.43842468225516"><ele>681.0</ele><time>2026-03-29T12:21:02.016Z</time></trkpt><trkpt lat="-24.999089830079825" lon="-53.43840626529155"><ele>681.0</ele><time>2026-03-29T12:21:03.016Z</time></trkpt><trkpt lat="-24.999007964657597" lon="-53.438394779523506"><ele>681.0</ele><time>2026-03-29T12:21:04.016Z</time></trkpt><trkpt lat="-24.99892140379044" lon="-53.4383856957882"><ele>681.0</ele><time>2026-03-29T12:21:05.016Z</time></trkpt><trkpt lat="-24.99884724343494" lon="-53.438367876921816"><ele>679.3333333333334</ele><time>2026-03-29T12:21:06.016Z</time></trkpt><trkpt lat="-24.998780096180514" lon="-53.438347152921786"><ele>677.6666666666666</ele><time>2026-03-29T12:21:07.016Z</time></trkpt><trkpt lat="-24.998683625677895" lon="-53.4382826418145"><ele>676.0</ele><time>2026-03-29T12:21:09.016Z</time></trkpt><trkpt lat="-24.998638394333863" lon="-53.4382217532266"><ele>674.3333333333333</ele><time>2026-03-29T12:21:10.016Z</time></trkpt><trkpt lat="-24.998606756104113" lon="-53.43815890721053"><ele>672.6666666666666</ele><time>2026-03-29T12:21:11.016Z</time></trkpt><trkpt lat="-24.998586112086926" lon="-53.43809031400513"><ele>671.0</ele><time>2026-03-29T12:21:12.016Z</time></trkpt><trkpt lat="-24.998549217942852" lon="-53.43801638065461"><ele>669.5999999999999</ele><time>2026-03-29T12:21:13.016Z</time></trkpt><trkpt lat="-24.998468683107152" lon="-53.43795885227156"><ele>668.2</ele><time>2026-03-29T12:21:15.016Z</time></trkpt><trkpt lat="-24.998368649151093" lon="-53.43795339969816"><ele>666.8</ele><time>2026-03-29T12:21:17.016Z</time></trkpt><trkpt lat="-24.998451905057383" lon="-53.43789457687495"><ele>665.4000000000001</ele><time>2026-03-29T12:21:23.016Z</time></trkpt><trkpt lat="-24.99851143915812" lon="-53.4378685632737"><ele>664.0</ele><time>2026-03-29T12:21:24.016Z</time></trkpt><trkpt lat="-24.99860278354739" lon="-53.437854380454745"><ele>664.0</ele><time>2026-03-29T12:21:26.016Z</time></trkpt><trkpt lat="-24.99867568451263" lon="-53.43782579168826"><ele>664.0</ele><time>2026-03-29T12:21:28.016Z</time></trkpt><trkpt lat="-24.998749395953922" lon="-53.43779163465323"><ele>664.0</ele><time>2026-03-29T12:21:29.016Z</time></trkpt><trkpt lat="-24.998835799489612" lon="-53.43784817609467"><ele>664.0</ele><time>2026-03-29T12:21:31.016Z</time></trkpt><trkpt lat="-24.998914362409433" lon="-53.43791629080759"><ele>664.0</ele><time>2026-03-29T12:21:33.016Z</time></trkpt><trkpt lat="-24.99892129370405" lon="-53.43799631939091"><ele>664.0</ele><time>2026-03-29T12:21:35.016Z</time></trkpt><trkpt lat="-24.998899733568834" lon="-53.4380703563484"><ele>665.1666666666667</ele><time>2026-03-29T12:21:37.016Z</time></trkpt><trkpt lat="-24.99898016334549" lon="-53.43807036772085"><ele>666.3333333333334</ele><time>2026-03-29T12:21:41.016Z</time></trkpt><trkpt lat="-24.999043482122946" lon="-53.43807875284443"><ele>667.5</ele><time>2026-03-29T12:21:44.016Z</time></trkpt><trkpt lat="-24.999109187858604" lon="-53.43804457016283"><ele>668.6666666666666</ele><time>2026-03-29T12:21:49.016Z</time></trkpt><trkpt lat="-24.999174306745232" lon="-53.43799250827544"><ele>669.8333333333333</ele><time>2026-03-29T12:21:52.016Z</time></trkpt><trkpt lat="-24.99924214553501" lon="-53.43796336372973"><ele>671.0</ele><time>2026-03-29T12:21:55.016Z</time></trkpt><trkpt lat="-24.999344893069104" lon="-53.4379604944442"><ele>671.1666666666666</ele><time>2026-03-29T12:21:58.017Z</time></trkpt><trkpt lat="-24.999426291366948" lon="-53.43791621801228"><ele>671.3333333333333</ele><time>2026-03-29T12:22:00.017Z</time></trkpt><trkpt lat="-24.9995288167624" lon="-53.43793732250737"><ele>671.5</ele><time>2026-03-29T12:22:02.016Z</time></trkpt><trkpt lat="-24.99961616659372" lon="-53.43791109222723"><ele>671.6666666666666</ele><time>2026-03-29T12:22:04.017Z</time></trkpt><trkpt lat="-24.999683696260394" lon="-53.43789239047495"><ele>671.8333333333334</ele><time>2026-03-29T12:22:06.017Z</time></trkpt><trkpt lat="-24.999772609448872" lon="-53.43791548393611"><ele>672.0</ele><time>2026-03-29T12:22:08.017Z</time></trkpt><trkpt lat="-24.99983503179825" lon="-53.43787828745967"><ele>672.0</ele><time>2026-03-29T12:22:09.017Z</time></trkpt><trkpt lat="-24.99989780398184" lon="-53.43783786453798"><ele>672.0</ele><time>2026-03-29T12:22:11.017Z</time></trkpt><trkpt lat="-24.999975225773817" lon="-53.43785257786989"><ele>672.0</ele><time>2026-03-29T12:22:13.017Z</time></trkpt><trkpt lat="-25.0000696812557" lon="-53.43783327090033"><ele>672.0</ele><time>2026-03-29T12:22:16.017Z</time></trkpt><trkpt lat="-25.000140523549835" lon="-53.43780272141774"><ele>672.0</ele><time>2026-03-29T12:22:19.017Z</time></trkpt><trkpt lat="-25.000215126129188" lon="-53.437786190601365"><ele>672.0</ele><time>2026-03-29T12:22:22.017Z</time></trkpt><trkpt lat="-25.000286334920624" lon="-53.43781429594525"><ele>672.0</ele><time>2026-03-29T12:22:25.017Z</time></trkpt><trkpt lat="-25.000376636234293" lon="-53.437830060241296"><ele>672.0</ele><time>2026-03-29T12:22:29.017Z</time></trkpt><trkpt lat="-25.00044552830692" lon="-53.43778602789814"><ele>672.0</ele><time>2026-03-29T12:22:31.017Z</time></trkpt><trkpt lat="-25.000508364821503" lon="-53.43777504579664"><ele>672.0</ele><time>2026-03-29T12:22:33.017Z</time></trkpt><trkpt lat="-25.000558201270564" lon="-53.43773058635833"><ele>672.0</ele><time>2026-03-29T12:22:35.017Z</time></trkpt><trkpt lat="-25.000640548308937" lon="-53.437695048631035"><ele>672.0</ele><time>2026-03-29T12:22:38.017Z</time></trkpt><trkpt lat="-25.00071279587489" lon="-53.43769223645558"><ele>672.0</ele><time>2026-03-29T12:22:40.017Z</time></trkpt><trkpt lat="-25.000777710209793" lon="-53.43774875151826"><ele>672.0</ele><time>2026-03-29T12:22:44.017Z</time></trkpt><trkpt lat="-25.000850334696146" lon="-53.437729940504234"><ele>672.0</ele><time>2026-03-29T12:22:48.017Z</time></trkpt><trkpt lat="-25.000919724385387" lon="-53.43772648821801"><ele>672.0</ele><time>2026-03-29T12:22:51.017Z</time></trkpt><trkpt lat="-25.000979823127892" lon="-53.43770104045376"><ele>672.0</ele><time>2026-03-29T12:22:53.017Z</time></trkpt><trkpt lat="-25.00104638694885" lon="-53.437707820042405"><ele>672.0</ele><time>2026-03-29T12:22:56.017Z</time></trkpt><trkpt lat="-25.001109239300337" lon="-53.43773684322707"><ele>672.0</ele><time>2026-03-29T12:22:58.017Z</time></trkpt><trkpt lat="-25.00119031841342" lon="-53.43772862519888"><ele>672.5714285714286</ele><time>2026-03-29T12:23:02.017Z</time></trkpt><trkpt lat="-25.001199216512966" lon="-53.437648087162536"><ele>673.1428571428571</ele><time>2026-03-29T12:23:06.017Z</time></trkpt><trkpt lat="-25.00124691560068" lon="-53.43759257496233"><ele>673.7142857142858</ele><time>2026-03-29T12:23:09.017Z</time></trkpt><trkpt lat="-25.00130468785719" lon="-53.43754415371667"><ele>674.2857142857142</ele><time>2026-03-29T12:23:12.017Z</time></trkpt><trkpt lat="-25.001354536363664" lon="-53.437492263082895"><ele>674.8571428571429</ele><time>2026-03-29T12:23:14.017Z</time></trkpt><trkpt lat="-25.00141587976713" lon="-53.43743250422002"><ele>675.4285714285714</ele><time>2026-03-29T12:23:17.017Z</time></trkpt><trkpt lat="-25.00142578068503" lon="-53.43735257571126"><ele>676.0</ele><time>2026-03-29T12:23:20.017Z</time></trkpt><trkpt lat="-25.00145269920434" lon="-53.437267496292876"><ele>676.0</ele><time>2026-03-29T12:23:22.017Z</time></trkpt><trkpt lat="-25.00151981046098" lon="-53.43715272000368"><ele>676.0</ele><time>2026-03-29T12:23:24.017Z</time></trkpt><trkpt lat="-25.00149290025234" lon="-53.437075355691505"><ele>676.0</ele><time>2026-03-29T12:23:27.017Z</time></trkpt><trkpt lat="-25.001501952515376" lon="-53.43697819592531"><ele>676.0</ele><time>2026-03-29T12:23:29.017Z</time></trkpt><trkpt lat="-25.001492569232678" lon="-53.436884009037016"><ele>676.0</ele><time>2026-03-29T12:23:31.017Z</time></trkpt><trkpt lat="-25.001463482481352" lon="-53.43696180529968"><ele>676.0</ele><time>2026-03-29T12:23:36.017Z</time></trkpt><trkpt lat="-25.001448052624646" lon="-53.437042153726"><ele>676.0</ele><time>2026-03-29T12:23:38.017Z</time></trkpt><trkpt lat="-25.001415144906034" lon="-53.43715740603638"><ele>676.0</ele><time>2026-03-29T12:23:40.017Z</time></trkpt><trkpt lat="-25.00140903761211" lon="-53.43725313933053"><ele>676.0</ele><time>2026-03-29T12:23:42.017Z</time></trkpt><trkpt lat="-25.00146688904942" lon="-53.43736521892788"><ele>676.0</ele><time>2026-03-29T12:23:44.017Z</time></trkpt><trkpt lat="-25.001497365102228" lon="-53.43743657624836"><ele>676.0</ele><time>2026-03-29T12:23:46.017Z</time></trkpt><trkpt lat="-25.001519585729273" lon="-53.43752532061693"><ele>676.0</ele><time>2026-03-29T12:23:49.017Z</time></trkpt><trkpt lat="-25.001509359987487" lon="-53.43759912850812"><ele>676.0</ele><time>2026-03-29T12:23:52.017Z</time></trkpt><trkpt lat="-25.00151855606796" lon="-53.437668060993175"><ele>676.0</ele><time>2026-03-29T12:23:57.018Z</time></trkpt><trkpt lat="-25.001380614525548" lon="-53.43756531763733"><ele>676.0</ele><time>2026-03-29T12:24:03.017Z</time></trkpt><trkpt lat="-25.001316630525707" lon="-53.437502866021696"><ele>676.0</ele><time>2026-03-29T12:24:05.017Z</time></trkpt><trkpt lat="-25.00129170174094" lon="-53.43741105001778"><ele>676.0</ele><time>2026-03-29T12:24:07.017Z</time></trkpt><trkpt lat="-25.001275595690764" lon="-53.43728382424127"><ele>676.0</ele><time>2026-03-29T12:24:09.017Z</time></trkpt><trkpt lat="-25.00125888626271" lon="-53.43714313693731"><ele>676.0</ele><time>2026-03-29T12:24:11.017Z</time></trkpt><trkpt lat="-25.00124960087127" lon="-53.43706065862657"><ele>676.0</ele><time>2026-03-29T12:24:12.017Z</time></trkpt><trkpt lat="-25.001229923129987" lon="-53.436919171037665"><ele>673.5</ele><time>2026-03-29T12:24:14.017Z</time></trkpt><trkpt lat="-25.00122488581167" lon="-53.43678899194436"><ele>671.0</ele><time>2026-03-29T12:24:16.017Z</time></trkpt><trkpt lat="-25.001214787894824" lon="-53.43671348421316"><ele>668.5</ele><time>2026-03-29T12:24:17.017Z</time></trkpt><trkpt lat="-25.001206417351288" lon="-53.4366426936026"><ele>666.0</ele><time>2026-03-29T12:24:18.017Z</time></trkpt><trkpt lat="-25.00119839813165" lon="-53.43657048650669"><ele>663.5</ele><time>2026-03-29T12:24:19.017Z</time></trkpt><trkpt lat="-25.001186821415775" lon="-53.436447724376265"><ele>661.0</ele><time>2026-03-29T12:24:21.017Z</time></trkpt><trkpt lat="-25.001208578124306" lon="-53.43636987731387"><ele>661.0</ele><time>2026-03-29T12:24:33.017Z</time></trkpt><trkpt lat="-25.00124157019371" lon="-53.43630541574713"><ele>661.0</ele><time>2026-03-29T12:25:02.018Z</time></trkpt><trkpt lat="-25.00137282907479" lon="-53.43633979846024"><ele>661.0</ele><time>2026-03-29T12:26:38.018Z</time></trkpt><trkpt lat="-25.001458990028166" lon="-53.436367425976854"><ele>661.0</ele><time>2026-03-29T12:26:40.018Z</time></trkpt><trkpt lat="-25.001528391811046" lon="-53.436393631092784"><ele>661.0</ele><time>2026-03-29T12:26:41.018Z</time></trkpt><trkpt lat="-25.001595440399964" lon="-53.43638223040484"><ele>661.0</ele><time>2026-03-29T12:26:42.018Z</time></trkpt><trkpt lat="-25.001671800369657" lon="-53.43639699511289"><ele>660.6666666666667</ele><time>2026-03-29T12:26:43.018Z</time></trkpt><trkpt lat="-25.00175340932142" lon="-53.43638283338124"><ele>660.3333333333334</ele><time>2026-03-29T12:26:44.018Z</time></trkpt><trkpt lat="-25.001822240945568" lon="-53.43637332066094"><ele>660.0</ele><time>2026-03-29T12:26:45.018Z</time></trkpt><trkpt lat="-25.00189737528589" lon="-53.43636590652922"><ele>659.6666666666666</ele><time>2026-03-29T12:26:47.018Z</time></trkpt><trkpt lat="-25.0019744674152" lon="-53.43633747363943"><ele>659.3333333333333</ele><time>2026-03-29T12:26:49.018Z</time></trkpt><trkpt lat="-25.00208490593851" lon="-53.436361311823056"><ele>659.0</ele><time>2026-03-29T12:26:51.018Z</time></trkpt><trkpt lat="-25.002156321023392" lon="-53.43636735674313"><ele>659.0</ele><time>2026-03-29T12:26:52.018Z</time></trkpt><trkpt lat="-25.00222593599366" lon="-53.43634899873734"><ele>659.0</ele><time>2026-03-29T12:26:53.019Z</time></trkpt><trkpt lat="-25.00229138617224" lon="-53.436337186146275"><ele>659.0</ele><time>2026-03-29T12:26:54.019Z</time></trkpt><trkpt lat="-25.00247319987861" lon="-53.43633156796973"><ele>659.0</ele><time>2026-03-29T12:26:56.019Z</time></trkpt><trkpt lat="-25.002560865588386" lon="-53.436348127710566"><ele>659.0</ele><time>2026-03-29T12:26:57.019Z</time></trkpt><trkpt lat="-25.00262377401239" lon="-53.436354026212655"><ele>658.8333333333333</ele><time>2026-03-29T12:26:58.019Z</time></trkpt><trkpt lat="-25.00268519576416" lon="-53.43638658131342"><ele>658.6666666666666</ele><time>2026-03-29T12:26:59.019Z</time></trkpt><trkpt lat="-25.0027768341995" lon="-53.43637494342114"><ele>658.5</ele><time>2026-03-29T12:27:00.019Z</time></trkpt><trkpt lat="-25.002854722089893" lon="-53.4363901990654"><ele>658.3333333333334</ele><time>2026-03-29T12:27:01.019Z</time></trkpt><trkpt lat="-25.002924585260967" lon="-53.436393108560104"><ele>658.1666666666667</ele><time>2026-03-29T12:27:02.019Z</time></trkpt><trkpt lat="-25.00302452659982" lon="-53.43646519304469"><ele>658.0</ele><time>2026-03-29T12:27:04.019Z</time></trkpt><trkpt lat="-25.003089968581055" lon="-53.43651024474657"><ele>658.0</ele><time>2026-03-29T12:27:05.019Z</time></trkpt><trkpt lat="-25.003154138087055" lon="-53.43653620855166"><ele>658.0</ele><time>2026-03-29T12:27:13.019Z</time></trkpt><trkpt lat="-25.003188151032727" lon="-53.436454949958645"><ele>658.0</ele><time>2026-03-29T12:27:19.019Z</time></trkpt><trkpt lat="-25.00322134155142" lon="-53.436391795693645"><ele>658.0</ele><time>2026-03-29T12:27:21.019Z</time></trkpt><trkpt lat="-25.00324257823694" lon="-53.436299691266335"><ele>658.0</ele><time>2026-03-29T12:27:31.019Z</time></trkpt><trkpt lat="-25.00323583894227" lon="-53.4362262878355"><ele>658.0</ele><time>2026-03-29T12:27:41.019Z</time></trkpt><trkpt lat="-25.003166373879562" lon="-53.436203929556484"><ele>658.0</ele><time>2026-03-29T12:27:43.019Z</time></trkpt><trkpt lat="-25.0031030984704" lon="-53.4361353883848"><ele>655.1666666666667</ele><time>2026-03-29T12:27:46.019Z</time></trkpt><trkpt lat="-25.003041835155187" lon="-53.43616807743525"><ele>652.3333333333334</ele><time>2026-03-29T12:27:52.019Z</time></trkpt><trkpt lat="-25.003014128527308" lon="-53.43606637557706"><ele>649.5</ele><time>2026-03-29T12:27:58.019Z</time></trkpt><trkpt lat="-25.002937639647964" lon="-53.4360225754823"><ele>646.6666666666666</ele><time>2026-03-29T12:28:01.019Z</time></trkpt><trkpt lat="-25.002871565658882" lon="-53.4360015670824"><ele>643.8333333333333</ele><time>2026-03-29T12:28:03.019Z</time></trkpt><trkpt lat="-25.002793959646354" lon="-53.435959641181036"><ele>641.0</ele><time>2026-03-29T12:28:05.019Z</time></trkpt><trkpt lat="-25.00274228226367" lon="-53.435906155167885"><ele>641.0</ele><time>2026-03-29T12:28:07.019Z</time></trkpt><trkpt lat="-25.002707625678934" lon="-53.43584610231083"><ele>641.0</ele><time>2026-03-29T12:28:14.02Z</time></trkpt><trkpt lat="-25.002689204152773" lon="-53.4357770721171"><ele>641.0</ele><time>2026-03-29T12:28:19.019Z</time></trkpt><trkpt lat="-25.002739053310073" lon="-53.43573341771832"><ele>641.0</ele><time>2026-03-29T12:28:22.019Z</time></trkpt><trkpt lat="-25.00274649026375" lon="-53.43566169387164"><ele>641.0</ele><time>2026-03-29T12:28:24.019Z</time></trkpt><trkpt lat="-25.00276601099807" lon="-53.43559200287118"><ele>641.0</ele><time>2026-03-29T12:28:27.019Z</time></trkpt><trkpt lat="-25.002755527108796" lon="-53.43551979318398"><ele>641.0</ele><time>2026-03-29T12:28:30.019Z</time></trkpt><trkpt lat="-25.002642055036187" lon="-53.435550198294074"><ele>641.0</ele><time>2026-03-29T12:28:43.019Z</time></trkpt><trkpt lat="-25.00257948234706" lon="-53.435589714168174"><ele>641.0</ele><time>2026-03-29T12:28:47.019Z</time></trkpt><trkpt lat="-25.002521948234055" lon="-53.43561963139701"><ele>641.0</ele><time>2026-03-29T12:28:50.019Z</time></trkpt><trkpt lat="-25.002464797213598" lon="-53.43570232862987"><ele>641.0</ele><time>2026-03-29T12:28:55.019Z</time></trkpt><trkpt lat="-25.00229453199259" lon="-53.43570199564544"><ele>641.0</ele><time>2026-03-29T12:29:01.019Z</time></trkpt><trkpt lat="-25.00210780407001" lon="-53.43568703524264"><ele>640.8333333333333</ele><time>2026-03-29T12:29:08.019Z</time></trkpt><trkpt lat="-25.00204379464147" lon="-53.435644399854084"><ele>640.6666666666666</ele><time>2026-03-29T12:29:10.019Z</time></trkpt><trkpt lat="-25.001985568475224" lon="-53.43556248752147"><ele>640.5</ele><time>2026-03-29T12:29:12.019Z</time></trkpt><trkpt lat="-25.001883517825387" lon="-53.43552793419939"><ele>640.3333333333334</ele><time>2026-03-29T12:29:15.019Z</time></trkpt><trkpt lat="-25.001816765301538" lon="-53.43552171823074"><ele>640.1666666666667</ele><time>2026-03-29T12:29:17.019Z</time></trkpt><trkpt lat="-25.00175348637755" lon="-53.435479520049796"><ele>640.0</ele><time>2026-03-29T12:29:19.019Z</time></trkpt><trkpt lat="-25.001685240980155" lon="-53.43537619313327"><ele>640.5</ele><time>2026-03-29T12:29:21.019Z</time></trkpt><trkpt lat="-25.00168028012748" lon="-53.43529217888614"><ele>641.0</ele><time>2026-03-29T12:29:23.019Z</time></trkpt><trkpt lat="-25.00164016358325" lon="-53.43522444958118"><ele>641.5</ele><time>2026-03-29T12:29:27.019Z</time></trkpt><trkpt lat="-25.00156476498074" lon="-53.4352134230563"><ele>642.0</ele><time>2026-03-29T12:29:30.019Z</time></trkpt><trkpt lat="-25.0014623862904" lon="-53.43519743289686"><ele>642.5</ele><time>2026-03-29T12:29:34.019Z</time></trkpt><trkpt lat="-25.00138402683379" lon="-53.43516508614957"><ele>643.0</ele><time>2026-03-29T12:29:38.019Z</time></trkpt><trkpt lat="-25.001328688448485" lon="-53.43512123528313"><ele>643.0</ele><time>2026-03-29T12:29:41.019Z</time></trkpt><trkpt lat="-25.001315575940612" lon="-53.43503906424271"><ele>643.0</ele><time>2026-03-29T12:29:44.019Z</time></trkpt><trkpt lat="-25.001285957906223" lon="-53.43495732458091"><ele>643.0</ele><time>2026-03-29T12:29:46.019Z</time></trkpt><trkpt lat="-25.001257179737763" lon="-53.43487028989144"><ele>643.0</ele><time>2026-03-29T12:29:49.019Z</time></trkpt><trkpt lat="-25.0011742823154" lon="-53.434798651902014"><ele>643.0</ele><time>2026-03-29T12:29:51.019Z</time></trkpt><trkpt lat="-25.001136234635222" lon="-53.43473989036568"><ele>643.0</ele><time>2026-03-29T12:29:52.019Z</time></trkpt><trkpt lat="-25.001116894251936" lon="-53.434645489634455"><ele>644.0</ele><time>2026-03-29T12:29:54.019Z</time></trkpt><trkpt lat="-25.001086816586223" lon="-53.43454576402167"><ele>645.0</ele><time>2026-03-29T12:29:57.019Z</time></trkpt><trkpt lat="-25.00108270552617" lon="-53.4344343830342"><ele>646.0</ele><time>2026-03-29T12:29:59.019Z</time></trkpt><trkpt lat="-25.00107870665932" lon="-53.43425547038178"><ele>647.0</ele><time>2026-03-29T12:30:01.019Z</time></trkpt><trkpt lat="-25.0010840593444" lon="-53.4341508510727"><ele>647.0</ele><time>2026-03-29T12:30:02.019Z</time></trkpt><trkpt lat="-25.001091220988776" lon="-53.43405348291426"><ele>647.0</ele><time>2026-03-29T12:30:03.019Z</time></trkpt><trkpt lat="-25.00108365348279" lon="-53.433953156127835"><ele>647.0</ele><time>2026-03-29T12:30:04.019Z</time></trkpt><trkpt lat="-25.00107494731484" lon="-53.433882875239604"><ele>647.0</ele><time>2026-03-29T12:30:05.019Z</time></trkpt><trkpt lat="-25.00107556265131" lon="-53.433758746155796"><ele>647.0</ele><time>2026-03-29T12:30:07.019Z</time></trkpt><trkpt lat="-25.00105099252247" lon="-53.43363624485465"><ele>650.6</ele><time>2026-03-29T12:30:11.019Z</time></trkpt><trkpt lat="-25.001052003336437" lon="-53.43352152861502"><ele>654.2</ele><time>2026-03-29T12:30:12.019Z</time></trkpt><trkpt lat="-25.001046331194036" lon="-53.43342273489787"><ele>657.8</ele><time>2026-03-29T12:30:13.019Z</time></trkpt><trkpt lat="-25.00103925552138" lon="-53.43332447645538"><ele>661.4</ele><time>2026-03-29T12:30:15.021Z</time></trkpt><trkpt lat="-25.00100988856533" lon="-53.43320816719896"><ele>665.0</ele><time>2026-03-29T12:30:18.02Z</time></trkpt><trkpt lat="-25.001018365894698" lon="-53.433125390289185"><ele>665.0</ele><time>2026-03-29T12:30:19.02Z</time></trkpt><trkpt lat="-25.000991519510112" lon="-53.4330056032203"><ele>665.0</ele><time>2026-03-29T12:30:20.02Z</time></trkpt><trkpt lat="-25.000990063455383" lon="-53.432935096772326"><ele>665.0</ele><time>2026-03-29T12:30:21.021Z</time></trkpt><trkpt lat="-25.00097323046752" lon="-53.4328535808624"><ele>665.0</ele><time>2026-03-29T12:30:22.021Z</time></trkpt><trkpt lat="-25.0009424879946" lon="-53.43270977066186"><ele>665.0</ele><time>2026-03-29T12:30:24.02Z</time></trkpt><trkpt lat="-25.000947538123988" lon="-53.43263601649781"><ele>667.5</ele><time>2026-03-29T12:30:25.02Z</time></trkpt><trkpt lat="-25.00092759819073" lon="-53.43254814343736"><ele>670.0</ele><time>2026-03-29T12:30:26.02Z</time></trkpt><trkpt lat="-25.00094366605709" lon="-53.432429863397275"><ele>672.5</ele><time>2026-03-29T12:30:27.02Z</time></trkpt><trkpt lat="-25.000955766355315" lon="-53.43234118786893"><ele>675.0</ele><time>2026-03-29T12:30:28.02Z</time></trkpt><trkpt lat="-25.000995939094306" lon="-53.43226166630371"><ele>677.5</ele><time>2026-03-29T12:30:29.02Z</time></trkpt><trkpt lat="-25.001042981612613" lon="-53.4322049830769"><ele>680.0</ele><time>2026-03-29T12:30:30.02Z</time></trkpt><trkpt lat="-25.001078156782274" lon="-53.43210447381192"><ele>681.6666666666666</ele><time>2026-03-29T12:30:32.02Z</time></trkpt><trkpt lat="-25.00106832537717" lon="-53.431998011589954"><ele>683.3333333333333</ele><time>2026-03-29T12:30:33.02Z</time></trkpt><trkpt lat="-25.00104450847074" lon="-53.43193283570802"><ele>685.0</ele><time>2026-03-29T12:30:34.02Z</time></trkpt><trkpt lat="-25.000994735916912" lon="-53.43188286961786"><ele>686.6666666666666</ele><time>2026-03-29T12:30:36.02Z</time></trkpt><trkpt lat="-25.000904471863407" lon="-53.43184431180601"><ele>688.3333333333334</ele><time>2026-03-29T12:30:38.02Z</time></trkpt><trkpt lat="-25.000843634156546" lon="-53.43182306233613"><ele>690.0</ele><time>2026-03-29T12:30:39.02Z</time></trkpt><trkpt lat="-25.000754180495743" lon="-53.43183031347777"><ele>691.1666666666666</ele><time>2026-03-29T12:30:41.02Z</time></trkpt><trkpt lat="-25.00068912977772" lon="-53.43184141453522"><ele>692.3333333333334</ele><time>2026-03-29T12:30:43.02Z</time></trkpt><trkpt lat="-25.000662769565913" lon="-53.431915369354634"><ele>693.5</ele><time>2026-03-29T12:30:45.02Z</time></trkpt><trkpt lat="-25.000576861454416" lon="-53.431931705809546"><ele>694.6666666666667</ele><time>2026-03-29T12:30:47.02Z</time></trkpt><trkpt lat="-25.000513871921672" lon="-53.43188237500626"><ele>695.8333333333334</ele><time>2026-03-29T12:30:50.02Z</time></trkpt><trkpt lat="-25.000442212998962" lon="-53.431844189036696"><ele>697.0</ele><time>2026-03-29T12:30:54.02Z</time></trkpt><trkpt lat="-25.000396884470526" lon="-53.43176810290056"><ele>697.0</ele><time>2026-03-29T12:30:57.02Z</time></trkpt><trkpt lat="-25.00036895920549" lon="-53.43169752998726"><ele>697.0</ele><time>2026-03-29T12:31:00.02Z</time></trkpt><trkpt lat="-25.000336674507537" lon="-53.43163221349771"><ele>697.0</ele><time>2026-03-29T12:31:02.02Z</time></trkpt><trkpt lat="-25.00032863154696" lon="-53.4315626051986"><ele>697.0</ele><time>2026-03-29T12:31:04.02Z</time></trkpt><trkpt lat="-25.000276313563013" lon="-53.43148216429717"><ele>697.0</ele><time>2026-03-29T12:31:08.02Z</time></trkpt><trkpt lat="-25.00012857411005" lon="-53.43148102061485"><ele>697.0</ele><time>2026-03-29T12:31:16.02Z</time></trkpt><trkpt lat="-25.00004529696457" lon="-53.43154500243269"><ele>697.0</ele><time>2026-03-29T12:31:20.02Z</time></trkpt><trkpt lat="-24.999975300200504" lon="-53.43154999749141"><ele>697.0</ele><time>2026-03-29T12:31:24.02Z</time></trkpt><trkpt lat="-24.9999031439613" lon="-53.43156275575332"><ele>697.0</ele><time>2026-03-29T12:31:29.02Z</time></trkpt><trkpt lat="-24.999882401231815" lon="-53.431644580829285"><ele>697.0</ele><time>2026-03-29T12:31:32.02Z</time></trkpt><trkpt lat="-24.99981742457809" lon="-53.43172687248767"><ele>697.0</ele><time>2026-03-29T12:31:36.02Z</time></trkpt><trkpt lat="-24.999732860304793" lon="-53.431793732576885"><ele>697.0</ele><time>2026-03-29T12:31:38.02Z</time></trkpt><trkpt lat="-24.999549695894615" lon="-53.431812430937384"><ele>697.0</ele><time>2026-03-29T12:31:45.02Z</time></trkpt><trkpt lat="-24.999479488051183" lon="-53.43176426616756"><ele>697.0</ele><time>2026-03-29T12:31:48.02Z</time></trkpt><trkpt lat="-24.99928934742302" lon="-53.43174413086772"><ele>697.0</ele><time>2026-03-29T12:31:55.02Z</time></trkpt><trkpt lat="-24.99919372800537" lon="-53.43170447767644"><ele>697.0</ele><time>2026-03-29T12:31:58.02Z</time></trkpt><trkpt lat="-24.999094004077474" lon="-53.4317063743751"><ele>695.8</ele><time>2026-03-29T12:32:01.02Z</time></trkpt><trkpt lat="-24.99902934473824" lon="-53.43174481173068"><ele>694.6</ele><time>2026-03-29T12:32:05.02Z</time></trkpt><trkpt lat="-24.998930865613413" lon="-53.43177670269509"><ele>693.4</ele><time>2026-03-29T12:32:50.021Z</time></trkpt><trkpt lat="-24.998862691173713" lon="-53.43183125906877"><ele>692.1999999999999</ele><time>2026-03-29T12:33:06.021Z</time></trkpt><trkpt lat="-24.99870499951735" lon="-53.4317773881361"><ele>691.0</ele><time>2026-03-29T12:37:09.024Z</time></trkpt><trkpt lat="-24.99848106190499" lon="-53.43179646480202"><ele>689.0</ele><time>2026-03-29T12:37:15.024Z</time></trkpt><trkpt lat="-24.998206238406855" lon="-53.43174778248624"><ele>687.0</ele><time>2026-03-29T12:37:23.024Z</time></trkpt><trkpt lat="-24.998129867535656" lon="-53.43174494516265"><ele>685.0</ele><time>2026-03-29T12:37:24.024Z</time></trkpt><trkpt lat="-24.997966335790522" lon="-53.43171773720116"><ele>685.0</ele><time>2026-03-29T12:37:31.024Z</time></trkpt><trkpt lat="-24.99788584893335" lon="-53.431657540888004"><ele>685.0</ele><time>2026-03-29T12:37:33.024Z</time></trkpt><trkpt lat="-24.997817898369327" lon="-53.43165219717373"><ele>685.0</ele><time>2026-03-29T12:37:35.024Z</time></trkpt><trkpt lat="-24.997717152367546" lon="-53.43162278265407"><ele>685.0</ele><time>2026-03-29T12:37:38.024Z</time></trkpt><trkpt lat="-24.997632109278197" lon="-53.43161737341443"><ele>685.0</ele><time>2026-03-29T12:37:41.024Z</time></trkpt><trkpt lat="-24.997561166209003" lon="-53.431608349409565"><ele>685.0</ele><time>2026-03-29T12:37:44.024Z</time></trkpt><trkpt lat="-24.997380334057958" lon="-53.431600621250006"><ele>686.1666666666667</ele><time>2026-03-29T12:37:49.024Z</time></trkpt><trkpt lat="-24.997252734656414" lon="-53.431627691547234"><ele>687.3333333333334</ele><time>2026-03-29T12:37:51.024Z</time></trkpt><trkpt lat="-24.997179964357553" lon="-53.431589398908535"><ele>688.5</ele><time>2026-03-29T12:37:53.024Z</time></trkpt><trkpt lat="-24.997113205702984" lon="-53.431541141303505"><ele>689.6666666666666</ele><time>2026-03-29T12:37:55.024Z</time></trkpt><trkpt lat="-24.99705253352024" lon="-53.4315192122004"><ele>690.8333333333333</ele><time>2026-03-29T12:37:57.024Z</time></trkpt><trkpt lat="-24.996979208862395" lon="-53.4315083011912"><ele>692.0</ele><time>2026-03-29T12:38:00.024Z</time></trkpt><trkpt lat="-24.99690219960121" lon="-53.43148953291552"><ele>692.0</ele><time>2026-03-29T12:38:03.024Z</time></trkpt><trkpt lat="-24.996834645172488" lon="-53.43145696313133"><ele>692.0</ele><time>2026-03-29T12:38:06.024Z</time></trkpt><trkpt lat="-24.99674985026597" lon="-53.43143239868962"><ele>692.0</ele><time>2026-03-29T12:38:09.024Z</time></trkpt><trkpt lat="-24.996682142678264" lon="-53.43140778173363"><ele>692.0</ele><time>2026-03-29T12:38:13.024Z</time></trkpt><trkpt lat="-24.996620017177815" lon="-53.4314309511942"><ele>692.0</ele><time>2026-03-29T12:38:16.024Z</time></trkpt><trkpt lat="-24.99654450362696" lon="-53.431400935946904"><ele>692.0</ele><time>2026-03-29T12:38:19.024Z</time></trkpt><trkpt lat="-24.996468950074068" lon="-53.43139508343042"><ele>693.1666666666666</ele><time>2026-03-29T12:38:22.024Z</time></trkpt><trkpt lat="-24.99639474885053" lon="-53.431349291533984"><ele>694.3333333333333</ele><time>2026-03-29T12:38:25.024Z</time></trkpt><trkpt lat="-24.99631037942571" lon="-53.431323528243986"><ele>695.5</ele><time>2026-03-29T12:38:29.024Z</time></trkpt><trkpt lat="-24.99623744767993" lon="-53.43128003563625"><ele>696.6666666666666</ele><time>2026-03-29T12:38:33.024Z</time></trkpt><trkpt lat="-24.996169928123532" lon="-53.431247395320284"><ele>697.8333333333334</ele><time>2026-03-29T12:38:36.024Z</time></trkpt><trkpt lat="-24.996100810625524" lon="-53.43122391339024"><ele>699.0</ele><time>2026-03-29T12:38:40.024Z</time></trkpt><trkpt lat="-24.996036176836835" lon="-53.43121687188183"><ele>699.5</ele><time>2026-03-29T12:38:44.024Z</time></trkpt><trkpt lat="-24.995917459681582" lon="-53.43118882635906"><ele>700.0</ele><time>2026-03-29T12:38:49.024Z</time></trkpt><trkpt lat="-24.995832255506212" lon="-53.43116479390139"><ele>700.5</ele><time>2026-03-29T12:38:52.024Z</time></trkpt><trkpt lat="-24.99570133388784" lon="-53.431122219387"><ele>701.0</ele><time>2026-03-29T12:38:56.024Z</time></trkpt><trkpt lat="-24.99549448685028" lon="-53.431093946215064"><ele>700.0</ele><time>2026-03-29T12:39:01.024Z</time></trkpt><trkpt lat="-24.995431138303196" lon="-53.43106211569237"><ele>699.0</ele><time>2026-03-29T12:39:03.024Z</time></trkpt><trkpt lat="-24.995347701138062" lon="-53.43106993064875"><ele>698.0</ele><time>2026-03-29T12:39:05.024Z</time></trkpt><trkpt lat="-24.99523979819776" lon="-53.43107143797745"><ele>697.0</ele><time>2026-03-29T12:39:08.024Z</time></trkpt><trkpt lat="-24.99514830755557" lon="-53.43104202692215"><ele>696.0</ele><time>2026-03-29T12:39:10.024Z</time></trkpt><trkpt lat="-24.995075825781576" lon="-53.43106938966498"><ele>695.0</ele><time>2026-03-29T12:39:12.024Z</time></trkpt><trkpt lat="-24.995008463534038" lon="-53.43106298544611"><ele>663.0</ele><time>2026-03-29T12:39:14.024Z</time></trkpt><trkpt lat="-24.993784293095356" lon="-53.43062683405657"><ele>662.9999999999999</ele><time>2026-03-29T12:39:16.024Z</time></trkpt><trkpt lat="-24.993701163223076" lon="-53.43059575799124"><ele>663.0</ele><time>2026-03-29T12:39:17.024Z</time></trkpt><trkpt lat="-24.993625225159647" lon="-53.43056338378168"><ele>663.0</ele><time>2026-03-29T12:39:18.024Z</time></trkpt><trkpt lat="-24.993552859149805" lon="-53.43056007579148"><ele>663.0</ele><time>2026-03-29T12:39:19.024Z</time></trkpt><trkpt lat="-24.99348584523237" lon="-53.43055092896763"><ele>663.0</ele><time>2026-03-29T12:39:21.024Z</time></trkpt><trkpt lat="-24.993427287174153" lon="-53.43051515545551"><ele>662.9999999999999</ele><time>2026-03-29T12:40:15.024Z</time></trkpt><trkpt lat="-24.993357327184434" lon="-53.430502360003224"><ele>663.0</ele><time>2026-03-29T12:40:20.024Z</time></trkpt><trkpt lat="-24.993285765917737" lon="-53.43047219024935"><ele>662.6666666666666</ele><time>2026-03-29T12:41:04.026Z</time></trkpt><trkpt lat="-24.993249313745764" lon="-53.43039802879927"><ele>662.3333333333334</ele><time>2026-03-29T12:41:09.026Z</time></trkpt><trkpt lat="-24.993206595978062" lon="-53.430346195266935"><ele>662.0</ele><time>2026-03-29T12:41:12.026Z</time></trkpt><trkpt lat="-24.99313105301721" lon="-53.43037223315198"><ele>661.6666666666667</ele><time>2026-03-29T12:41:17.026Z</time></trkpt><trkpt lat="-24.993064693796896" lon="-53.43031414994725"><ele>661.3333333333334</ele><time>2026-03-29T12:41:21.026Z</time></trkpt><trkpt lat="-24.992993022586933" lon="-53.43027549211865"><ele>661.0</ele><time>2026-03-29T12:41:25.026Z</time></trkpt><trkpt lat="-24.99291999629759" lon="-53.43025127864046"><ele>661.0</ele><time>2026-03-29T12:41:28.026Z</time></trkpt><trkpt lat="-24.992858275360195" lon="-53.43021620369956"><ele>661.0</ele><time>2026-03-29T12:41:33.026Z</time></trkpt><trkpt lat="-24.992801384963503" lon="-53.430154414199826"><ele>661.0</ele><time>2026-03-29T12:41:38.026Z</time></trkpt><trkpt lat="-24.9927616597267" lon="-53.43008289153825"><ele>661.0</ele><time>2026-03-29T12:41:42.026Z</time></trkpt><trkpt lat="-24.99272447910352" lon="-53.430004692745754"><ele>661.0</ele><time>2026-03-29T12:41:47.026Z</time></trkpt><trkpt lat="-24.99268752420086" lon="-53.429912959722905"><ele>661.0</ele><time>2026-03-29T12:41:51.026Z</time></trkpt><trkpt lat="-24.99267150354582" lon="-53.42982805659275"><ele>661.0</ele><time>2026-03-29T12:41:53.026Z</time></trkpt><trkpt lat="-24.9926441836928" lon="-53.42976209181966"><ele>661.0</ele><time>2026-03-29T12:41:55.026Z</time></trkpt><trkpt lat="-24.992596174083396" lon="-53.42971645952311"><ele>661.0</ele><time>2026-03-29T12:42:00.026Z</time></trkpt><trkpt lat="-24.992468796054943" lon="-53.429693138407956"><ele>661.0</ele><time>2026-03-29T12:42:09.026Z</time></trkpt><trkpt lat="-24.992367957398272" lon="-53.42967892015538"><ele>661.0</ele><time>2026-03-29T12:42:11.026Z</time></trkpt><trkpt lat="-24.99227853097798" lon="-53.429705182474315"><ele>662.1666666666667</ele><time>2026-03-29T12:42:13.026Z</time></trkpt><trkpt lat="-24.992281955197342" lon="-53.42978607535668"><ele>663.3333333333334</ele><time>2026-03-29T12:42:19.026Z</time></trkpt><trkpt lat="-24.99223043172669" lon="-53.429829422048805"><ele>664.5</ele><time>2026-03-29T12:42:22.026Z</time></trkpt><trkpt lat="-24.9921978818614" lon="-53.429893547850654"><ele>665.6666666666666</ele><time>2026-03-29T12:42:29.026Z</time></trkpt><trkpt lat="-24.992181315010455" lon="-53.42997614168663"><ele>666.8333333333333</ele><time>2026-03-29T12:42:34.026Z</time></trkpt><trkpt lat="-24.99215432149745" lon="-53.43005619989577"><ele>668.0</ele><time>2026-03-29T12:42:39.026Z</time></trkpt><trkpt lat="-24.99213801954938" lon="-53.43015550066899"><ele>668.0</ele><time>2026-03-29T12:43:10.027Z</time></trkpt><trkpt lat="-24.992194730214447" lon="-53.430193980160375"><ele>668.0</ele><time>2026-03-29T12:43:34.027Z</time></trkpt><trkpt lat="-24.992249770430803" lon="-53.430228135857746"><ele>668.0</ele><time>2026-03-29T12:43:37.027Z</time></trkpt><trkpt lat="-24.992323560152624" lon="-53.43024773980822"><ele>668.0</ele><time>2026-03-29T12:43:41.976Z</time></trkpt><trkpt lat="-24.99238309051348" lon="-53.43033401253359"><ele>668.0</ele><time>2026-03-29T12:43:43.976Z</time></trkpt><trkpt lat="-24.99235994673916" lon="-53.430412403699435"><ele>668.0</ele><time>2026-03-29T12:43:45.976Z</time></trkpt><trkpt lat="-24.99233264880344" lon="-53.43047891873082"><ele>668.0</ele><time>2026-03-29T12:43:47.976Z</time></trkpt><trkpt lat="-24.99227747540265" lon="-53.430517203418844"><ele>668.3333333333333</ele><time>2026-03-29T12:43:48.976Z</time></trkpt><trkpt lat="-24.99223000962746" lon="-53.43061422350302"><ele>668.6666666666666</ele><time>2026-03-29T12:43:51.976Z</time></trkpt><trkpt lat="-24.992197389046318" lon="-53.43069419300515"><ele>669.0</ele><time>2026-03-29T12:43:53.976Z</time></trkpt><trkpt lat="-24.99212254647995" lon="-53.43074060661357"><ele>669.3333333333334</ele><time>2026-03-29T12:43:55.976Z</time></trkpt><trkpt lat="-24.99211608048705" lon="-53.43081641023208"><ele>669.6666666666667</ele><time>2026-03-29T12:43:57.976Z</time></trkpt><trkpt lat="-24.992202808067308" lon="-53.43080415658247"><ele>670.0</ele><time>2026-03-29T12:44:09.976Z</time></trkpt><trkpt lat="-24.992299429042234" lon="-53.43077974809091"><ele>670.0</ele><time>2026-03-29T12:44:13.976Z</time></trkpt><trkpt lat="-24.992378389504417" lon="-53.43080631723918"><ele>670.0</ele><time>2026-03-29T12:44:16.976Z</time></trkpt><trkpt lat="-24.992449042110874" lon="-53.430827347946234"><ele>670.0</ele><time>2026-03-29T12:44:21.976Z</time></trkpt><trkpt lat="-24.9924554955263" lon="-53.43092443274186"><ele>670.0</ele><time>2026-03-29T12:44:25.976Z</time></trkpt><trkpt lat="-24.99245628530411" lon="-53.431012181305746"><ele>670.0</ele><time>2026-03-29T12:44:29.976Z</time></trkpt><trkpt lat="-24.992451628262675" lon="-53.431092171322895"><ele>670.0</ele><time>2026-03-29T12:44:32.976Z</time></trkpt><trkpt lat="-24.992395056376715" lon="-53.431146061775515"><ele>670.0</ele><time>2026-03-29T12:44:35.976Z</time></trkpt><trkpt lat="-24.99233401427105" lon="-53.43110766715416"><ele>670.0</ele><time>2026-03-29T12:44:38.976Z</time></trkpt><trkpt lat="-24.992242905885295" lon="-53.431108505265385"><ele>670.0</ele><time>2026-03-29T12:44:41.976Z</time></trkpt><trkpt lat="-24.992148833191333" lon="-53.43111950835859"><ele>670.0</ele><time>2026-03-29T12:44:45.976Z</time></trkpt><trkpt lat="-24.992075228903825" lon="-53.43113353104997"><ele>670.0</ele><time>2026-03-29T12:44:49.976Z</time></trkpt><trkpt lat="-24.99200592476131" lon="-53.431117506727276"><ele>670.0</ele><time>2026-03-29T12:44:50.976Z</time></trkpt><trkpt lat="-24.991900837281733" lon="-53.43110917782056"><ele>670.0</ele><time>2026-03-29T12:44:52.976Z</time></trkpt><trkpt lat="-24.991852992573737" lon="-53.43103494582087"><ele>670.0</ele><time>2026-03-29T12:44:55.977Z</time></trkpt><trkpt lat="-24.99179101581109" lon="-53.43096474627417"><ele>670.0</ele><time>2026-03-29T12:44:57.977Z</time></trkpt><trkpt lat="-24.991746920515432" lon="-53.430878943052036"><ele>670.0</ele><time>2026-03-29T12:45:01.976Z</time></trkpt><trkpt lat="-24.991695053444584" lon="-53.43081988761889"><ele>670.0</ele><time>2026-03-29T12:45:03.977Z</time></trkpt><trkpt lat="-24.99167868444317" lon="-53.43073799530502"><ele>670.0</ele><time>2026-03-29T12:45:06.977Z</time></trkpt><trkpt lat="-24.991650442533352" lon="-53.43066427060223"><ele>672.5714285714286</ele><time>2026-03-29T12:45:09.976Z</time></trkpt><trkpt lat="-24.99162075798048" lon="-53.430588472122274"><ele>675.1428571428571</ele><time>2026-03-29T12:45:12.976Z</time></trkpt><trkpt lat="-24.991587544044688" lon="-53.43052579781822"><ele>677.7142857142858</ele><time>2026-03-29T12:45:15.976Z</time></trkpt><trkpt lat="-24.99153791306804" lon="-53.43044347891813"><ele>680.2857142857142</ele><time>2026-03-29T12:45:19.976Z</time></trkpt><trkpt lat="-24.99149454151771" lon="-53.4303833599881"><ele>682.8571428571429</ele><time>2026-03-29T12:45:23.976Z</time></trkpt><trkpt lat="-24.991464149351355" lon="-53.43032045877186"><ele>685.4285714285714</ele><time>2026-03-29T12:45:28.976Z</time></trkpt><trkpt lat="-24.99141205100088" lon="-53.4302708520871"><ele>688.0</ele><time>2026-03-29T12:45:31.976Z</time></trkpt><trkpt lat="-24.991384492530983" lon="-53.430207130997736"><ele>688.0000000000001</ele><time>2026-03-29T12:45:35.976Z</time></trkpt><trkpt lat="-24.991450408269262" lon="-53.430199217232754"><ele>688.0</ele><time>2026-03-29T12:45:39.976Z</time></trkpt><trkpt lat="-24.99150452077812" lon="-53.43015751731957"><ele>688.0</ele><time>2026-03-29T12:45:42.976Z</time></trkpt><trkpt lat="-24.991563369646272" lon="-53.43012631021749"><ele>688.0</ele><time>2026-03-29T12:45:45.976Z</time></trkpt><trkpt lat="-24.99163781370176" lon="-53.430076740529024"><ele>688.0</ele><time>2026-03-29T12:45:47.976Z</time></trkpt><trkpt lat="-24.991627748415805" lon="-53.430004017122045"><ele>688.0000000000001</ele><time>2026-03-29T12:45:50.976Z</time></trkpt><trkpt lat="-24.991587901860917" lon="-53.429920431809414"><ele>688.0</ele><time>2026-03-29T12:45:54.976Z</time></trkpt><trkpt lat="-24.991628882848136" lon="-53.4298457344484"><ele>688.0</ele><time>2026-03-29T12:45:58.976Z</time></trkpt><trkpt lat="-24.9916411249068" lon="-53.42975979904578"><ele>688.0</ele><time>2026-03-29T12:46:02.976Z</time></trkpt><trkpt lat="-24.99160884008343" lon="-53.4296596960064"><ele>688.0</ele><time>2026-03-29T12:46:05.976Z</time></trkpt><trkpt lat="-24.991591597252782" lon="-53.42958956662828"><ele>688.0</ele><time>2026-03-29T12:46:08.976Z</time></trkpt><trkpt lat="-24.99156600926827" lon="-53.429523665637326"><ele>688.0</ele><time>2026-03-29T12:46:12.976Z</time></trkpt><trkpt lat="-24.991526635635577" lon="-53.42945136878669"><ele>688.0</ele><time>2026-03-29T12:46:15.976Z</time></trkpt><trkpt lat="-24.9914953169938" lon="-53.42937799355372"><ele>688.0000000000001</ele><time>2026-03-29T12:46:18.976Z</time></trkpt><trkpt lat="-24.991432942966732" lon="-53.4293548926736"><ele>688.0</ele><time>2026-03-29T12:46:21.976Z</time></trkpt><trkpt lat="-24.991366447163315" lon="-53.429407188458484"><ele>688.0</ele><time>2026-03-29T12:46:30.976Z</time></trkpt><trkpt lat="-24.991354626351402" lon="-53.42948242772844"><ele>688.0</ele><time>2026-03-29T12:46:34.976Z</time></trkpt><trkpt lat="-24.991353028137166" lon="-53.429569962524155"><ele>688.0</ele><time>2026-03-29T12:46:38.976Z</time></trkpt><trkpt lat="-24.991333249018478" lon="-53.42964728326192"><ele>688.0000000000001</ele><time>2026-03-29T12:46:41.976Z</time></trkpt><trkpt lat="-24.991316878931134" lon="-53.429717234871454"><ele>688.0</ele><time>2026-03-29T12:46:43.976Z</time></trkpt><trkpt lat="-24.991299490203474" lon="-53.42980268250412"><ele>688.0</ele><time>2026-03-29T12:46:46.976Z</time></trkpt><trkpt lat="-24.991316746101084" lon="-53.4298894292634"><ele>688.0</ele><time>2026-03-29T12:46:50.976Z</time></trkpt><trkpt lat="-24.991330363595356" lon="-53.42996541982285"><ele>688.0</ele><time>2026-03-29T12:46:53.976Z</time></trkpt><trkpt lat="-24.991326169452435" lon="-53.43006526704584"><ele>688.0</ele><time>2026-03-29T12:46:55.976Z</time></trkpt><trkpt lat="-24.991280846425312" lon="-53.4301213804057"><ele>688.0</ele><time>2026-03-29T12:46:57.976Z</time></trkpt><trkpt lat="-24.991215308161934" lon="-53.430171372545864"><ele>688.0</ele><time>2026-03-29T12:47:01.977Z</time></trkpt><trkpt lat="-24.991174425518896" lon="-53.43026078178287"><ele>688.0</ele><time>2026-03-29T12:47:04.977Z</time></trkpt><trkpt lat="-24.991086305465423" lon="-53.43023574389083"><ele>688.0</ele><time>2026-03-29T12:47:06.977Z</time></trkpt><trkpt lat="-24.991007506194567" lon="-53.43018747219615"><ele>688.0</ele><time>2026-03-29T12:47:08.976Z</time></trkpt><trkpt lat="-24.990963726214616" lon="-53.430129412019426"><ele>688.0</ele><time>2026-03-29T12:47:14.976Z</time></trkpt><trkpt lat="-24.990898523634396" lon="-53.43007843589444"><ele>688.0</ele><time>2026-03-29T12:47:18.976Z</time></trkpt><trkpt lat="-24.990845110148523" lon="-53.43003307118118"><ele>688.0</ele><time>2026-03-29T12:47:22.976Z</time></trkpt><trkpt lat="-24.990804029157" lon="-53.42996162121065"><ele>689.8571428571429</ele><time>2026-03-29T12:47:25.976Z</time></trkpt><trkpt lat="-24.990743320066834" lon="-53.42991984599162"><ele>691.7142857142858</ele><time>2026-03-29T12:47:29.976Z</time></trkpt><trkpt lat="-24.990675093822656" lon="-53.42990573253496"><ele>693.5714285714287</ele><time>2026-03-29T12:47:32.976Z</time></trkpt><trkpt lat="-24.99061480821875" lon="-53.42984671129421"><ele>695.4285714285714</ele><time>2026-03-29T12:47:35.976Z</time></trkpt><trkpt lat="-24.990560710518004" lon="-53.429793632795096"><ele>697.2857142857142</ele><time>2026-03-29T12:47:38.976Z</time></trkpt><trkpt lat="-24.99051482867222" lon="-53.42972315207067"><ele>699.1428571428572</ele><time>2026-03-29T12:47:42.976Z</time></trkpt><trkpt lat="-24.99045448011085" lon="-53.42967856332457"><ele>701.0</ele><time>2026-03-29T12:47:46.976Z</time></trkpt><trkpt lat="-24.990400642575302" lon="-53.42961839839096"><ele>701.0</ele><time>2026-03-29T12:47:52.976Z</time></trkpt><trkpt lat="-24.990335191881552" lon="-53.42953504181039"><ele>701.0</ele><time>2026-03-29T12:48:00.976Z</time></trkpt><trkpt lat="-24.990279147893634" lon="-53.429478700025314"><ele>701.0</ele><time>2026-03-29T12:48:09.976Z</time></trkpt><trkpt lat="-24.99021674852783" lon="-53.42945855520549"><ele>701.0</ele><time>2026-03-29T12:48:24.976Z</time></trkpt><trkpt lat="-24.990149519921513" lon="-53.42945285303467"><ele>701.0</ele><time>2026-03-29T12:48:39.976Z</time></trkpt><trkpt lat="-24.990026856479822" lon="-53.429468051723646"><ele>701.0</ele><time>2026-03-29T12:48:41.976Z</time></trkpt><trkpt lat="-24.989903587431208" lon="-53.42943536770279"><ele>701.25</ele><time>2026-03-29T12:48:42.976Z</time></trkpt><trkpt lat="-24.989790516874326" lon="-53.429400512311325"><ele>701.5</ele><time>2026-03-29T12:48:43.976Z</time></trkpt><trkpt lat="-24.989677293022662" lon="-53.42936524969701"><ele>701.75</ele><time>2026-03-29T12:48:44.976Z</time></trkpt><trkpt lat="-24.989558493469588" lon="-53.429336039073945"><ele>702.0</ele><time>2026-03-29T12:48:45.976Z</time></trkpt><trkpt lat="-24.98943867253434" lon="-53.42932487312942"><ele>702.0</ele><time>2026-03-29T12:48:46.976Z</time></trkpt><trkpt lat="-24.989330153937075" lon="-53.42927461560521"><ele>702.0</ele><time>2026-03-29T12:48:47.976Z</time></trkpt><trkpt lat="-24.989241327816213" lon="-53.42927137858546"><ele>702.0</ele><time>2026-03-29T12:48:48.976Z</time></trkpt><trkpt lat="-24.989150512214596" lon="-53.429247837855144"><ele>702.0</ele><time>2026-03-29T12:48:49.976Z</time></trkpt><trkpt lat="-24.98907746339664" lon="-53.42922490352506"><ele>702.0</ele><time>2026-03-29T12:48:50.976Z</time></trkpt><trkpt lat="-24.989013845402035" lon="-53.42915550225901"><ele>702.0</ele><time>2026-03-29T12:48:51.976Z</time></trkpt><trkpt lat="-24.988922619226546" lon="-53.429081285803115"><ele>702.0</ele><time>2026-03-29T12:48:53.976Z</time></trkpt><trkpt lat="-24.988853680234957" lon="-53.42906351173357"><ele>702.0</ele><time>2026-03-29T12:48:54.976Z</time></trkpt><trkpt lat="-24.9887608199381" lon="-53.42912381007213"><ele>702.0</ele><time>2026-03-29T12:48:56.976Z</time></trkpt><trkpt lat="-24.98866589808553" lon="-53.42910289212466"><ele>702.0</ele><time>2026-03-29T12:48:59.976Z</time></trkpt><trkpt lat="-24.988544959979937" lon="-53.42903660238081"><ele>702.0</ele><time>2026-03-29T12:50:09.976Z</time></trkpt><trkpt lat="-24.988461979686384" lon="-53.428915092230405"><ele>702.0</ele><time>2026-03-29T12:50:36.976Z</time></trkpt><trkpt lat="-24.98842112754425" lon="-53.42883296392959"><ele>702.0</ele><time>2026-03-29T12:50:39.976Z</time></trkpt><trkpt lat="-24.988390562297102" lon="-53.42875135914402"><ele>702.0</ele><time>2026-03-29T12:50:41.976Z</time></trkpt><trkpt lat="-24.988363494530525" lon="-53.42865221085005"><ele>702.0</ele><time>2026-03-29T12:50:43.976Z</time></trkpt><trkpt lat="-24.988348474749092" lon="-53.42855428319505"><ele>705.2</ele><time>2026-03-29T12:50:45.976Z</time></trkpt><trkpt lat="-24.988312087740475" lon="-53.428468735119615"><ele>708.4000000000001</ele><time>2026-03-29T12:50:47.976Z</time></trkpt><trkpt lat="-24.988292105253617" lon="-53.428363040451174"><ele>711.5999999999999</ele><time>2026-03-29T12:50:49.976Z</time></trkpt><trkpt lat="-24.988270215727027" lon="-53.42826001957792"><ele>714.8</ele><time>2026-03-29T12:50:51.976Z</time></trkpt><trkpt lat="-24.98824760582947" lon="-53.42815614088442"><ele>718.0</ele><time>2026-03-29T12:50:53.976Z</time></trkpt><trkpt lat="-24.988202167042328" lon="-53.428043243075024"><ele>718.0</ele><time>2026-03-29T12:50:55.976Z</time></trkpt><trkpt lat="-24.988219520474956" lon="-53.427963054178846"><ele>718.0</ele><time>2026-03-29T12:50:56.976Z</time></trkpt><trkpt lat="-24.98819078968007" lon="-53.42789217424936"><ele>718.0</ele><time>2026-03-29T12:50:58.976Z</time></trkpt><trkpt lat="-24.988178128364346" lon="-53.427809932872535"><ele>718.0</ele><time>2026-03-29T12:51:00.976Z</time></trkpt><trkpt lat="-24.988183879479756" lon="-53.42772835949978"><ele>718.0</ele><time>2026-03-29T12:51:03.976Z</time></trkpt><trkpt lat="-24.988164935283162" lon="-53.427635553085324"><ele>718.0</ele><time>2026-03-29T12:51:07.976Z</time></trkpt><trkpt lat="-24.988138334651" lon="-53.42756507781663"><ele>718.0</ele><time>2026-03-29T12:51:10.976Z</time></trkpt><trkpt lat="-24.98810803268811" lon="-53.427498916140706"><ele>718.0</ele><time>2026-03-29T12:51:22.976Z</time></trkpt><trkpt lat="-24.988083421017087" lon="-53.427433556818855"><ele>718.0</ele><time>2026-03-29T12:51:30.976Z</time></trkpt><trkpt lat="-24.988063012155724" lon="-53.427364535322575"><ele>718.0</ele><time>2026-03-29T12:51:34.976Z</time></trkpt><trkpt lat="-24.98800941268401" lon="-53.42732578869003"><ele>718.0</ele><time>2026-03-29T12:51:38.976Z</time></trkpt><trkpt lat="-24.987958888047675" lon="-53.427264601435354"><ele>718.0</ele><time>2026-03-29T12:51:42.976Z</time></trkpt><trkpt lat="-24.98790697217974" lon="-53.42721714700213"><ele>718.0</ele><time>2026-03-29T12:51:45.976Z</time></trkpt><trkpt lat="-24.987868808594524" lon="-53.427157718127624"><ele>716.3333333333334</ele><time>2026-03-29T12:51:47.976Z</time></trkpt><trkpt lat="-24.987848796848166" lon="-53.42707028765482"><ele>714.6666666666667</ele><time>2026-03-29T12:51:49.976Z</time></trkpt><trkpt lat="-24.987813632464736" lon="-53.4269800792068"><ele>713.0</ele><time>2026-03-29T12:51:52.976Z</time></trkpt><trkpt lat="-24.987793722665398" lon="-53.426912510062394"><ele>711.3333333333334</ele><time>2026-03-29T12:51:57.976Z</time></trkpt><trkpt lat="-24.987777134637955" lon="-53.42682600153053"><ele>709.6666666666666</ele><time>2026-03-29T12:52:05.976Z</time></trkpt><trkpt lat="-24.98774381972097" lon="-53.42675876085828"><ele>708.0</ele><time>2026-03-29T12:52:25.976Z</time></trkpt><trkpt lat="-24.987725592348433" lon="-53.42668864418362"><ele>708.0</ele><time>2026-03-29T12:52:29.976Z</time></trkpt><trkpt lat="-24.98776738753149" lon="-53.42662288059003"><ele>708.0</ele><time>2026-03-29T12:52:34.976Z</time></trkpt><trkpt lat="-24.987777490241648" lon="-53.4265440831065"><ele>708.0</ele><time>2026-03-29T12:52:39.976Z</time></trkpt><trkpt lat="-24.987800756710225" lon="-53.42647499259174"><ele>708.0</ele><time>2026-03-29T12:52:48.976Z</time></trkpt><trkpt lat="-24.987762126452616" lon="-53.42639985495489"><ele>708.0</ele><time>2026-03-29T12:52:51.976Z</time></trkpt><trkpt lat="-24.987713832635244" lon="-53.42632942842374"><ele>708.0</ele><time>2026-03-29T12:52:54.976Z</time></trkpt><trkpt lat="-24.987682089480124" lon="-53.42624534801118"><ele>706.0</ele><time>2026-03-29T12:52:56.976Z</time></trkpt><trkpt lat="-24.987649981405884" lon="-53.426167206740885"><ele>704.0</ele><time>2026-03-29T12:52:58.976Z</time></trkpt><trkpt lat="-24.987704451568142" lon="-53.426040363068914"><ele>702.0</ele><time>2026-03-29T12:53:20.977Z</time></trkpt><trkpt lat="-24.987690045398544" lon="-53.42596869470726"><ele>700.0</ele><time>2026-03-29T12:53:53.976Z</time></trkpt><trkpt lat="-24.987669709810522" lon="-53.4259005333286"><ele>698.0</ele><time>2026-03-29T12:54:02.976Z</time></trkpt><trkpt lat="-24.987665244615886" lon="-53.42581246031553"><ele>696.0</ele><time>2026-03-29T12:54:28.976Z</time></trkpt><trkpt lat="-24.987605866892597" lon="-53.425732585766504"><ele>696.0</ele><time>2026-03-29T12:54:33.976Z</time></trkpt><trkpt lat="-24.987565156821567" lon="-53.42564942741632"><ele>696.0</ele><time>2026-03-29T12:54:36.976Z</time></trkpt><trkpt lat="-24.987556466347115" lon="-53.42556837118772"><ele>696.0</ele><time>2026-03-29T12:54:41.976Z</time></trkpt><trkpt lat="-24.987517994229254" lon="-53.42548947706519"><ele>696.0</ele><time>2026-03-29T12:54:45.976Z</time></trkpt><trkpt lat="-24.987486613533544" lon="-53.425400399301004"><ele>696.0</ele><time>2026-03-29T12:54:47.976Z</time></trkpt><trkpt lat="-24.98747644802429" lon="-53.42532101775808"><ele>696.0</ele><time>2026-03-29T12:54:49.976Z</time></trkpt><trkpt lat="-24.98746350727121" lon="-53.42523887326234"><ele>697.4</ele><time>2026-03-29T12:54:51.976Z</time></trkpt><trkpt lat="-24.98741506815248" lon="-53.425111213336656"><ele>698.8</ele><time>2026-03-29T12:54:54.976Z</time></trkpt><trkpt lat="-24.987384917031868" lon="-53.425048180031666"><ele>700.1999999999999</ele><time>2026-03-29T12:54:57.976Z</time></trkpt><trkpt lat="-24.987356687957153" lon="-53.42490487842912"><ele>701.5999999999999</ele><time>2026-03-29T12:55:11.976Z</time></trkpt><trkpt lat="-24.987359310593995" lon="-53.424808827292594"><ele>703.0</ele><time>2026-03-29T12:56:45.976Z</time></trkpt><trkpt lat="-24.98731112312554" lon="-53.42474795346712"><ele>703.0</ele><time>2026-03-29T12:57:03.976Z</time></trkpt><trkpt lat="-24.98726337816601" lon="-53.424678943595666"><ele>703.0</ele><time>2026-03-29T12:59:28.977Z</time></trkpt><trkpt lat="-24.98728802914644" lon="-53.4247446049849"><ele>703.0</ele><time>2026-03-29T13:03:01.973Z</time></trkpt><trkpt lat="-24.987351623085406" lon="-53.424749830864165"><ele>703.0</ele><time>2026-03-29T13:03:28.973Z</time></trkpt><trkpt lat="-24.98738659012676" lon="-53.424808208024906"><ele>703.0</ele><time>2026-03-29T13:03:36.973Z</time></trkpt><trkpt lat="-24.987410743183307" lon="-53.424876090909535"><ele>703.0</ele><time>2026-03-29T13:03:39.973Z</time></trkpt><trkpt lat="-24.987427892969002" lon="-53.42497891352149"><ele>703.0</ele><time>2026-03-29T13:03:42.973Z</time></trkpt><trkpt lat="-24.987441128389495" lon="-53.425056822126976"><ele>703.0</ele><time>2026-03-29T13:03:44.973Z</time></trkpt><trkpt lat="-24.987488701855987" lon="-53.425118487931684"><ele>703.0</ele><time>2026-03-29T13:03:47.973Z</time></trkpt><trkpt lat="-24.98749771231264" lon="-53.42520468808988"><ele>703.0</ele><time>2026-03-29T13:03:51.974Z</time></trkpt><trkpt lat="-24.987495875003063" lon="-53.42528032030819"><ele>703.0</ele><time>2026-03-29T13:03:53.974Z</time></trkpt><trkpt lat="-24.987535950871887" lon="-53.425398654082265"><ele>703.0</ele><time>2026-03-29T13:03:57.974Z</time></trkpt><trkpt lat="-24.987554983388737" lon="-53.42546515773023"><ele>703.0</ele><time>2026-03-29T13:04:00.974Z</time></trkpt><trkpt lat="-24.987564135713267" lon="-53.42553874939559"><ele>701.8333333333334</ele><time>2026-03-29T13:04:05.973Z</time></trkpt><trkpt lat="-24.987568977996297" lon="-53.42561209407803"><ele>700.6666666666667</ele><time>2026-03-29T13:04:11.973Z</time></trkpt><trkpt lat="-24.987602710060855" lon="-53.42567820020684"><ele>699.5</ele><time>2026-03-29T13:04:17.973Z</time></trkpt><trkpt lat="-24.987617646823214" lon="-53.42577569201303"><ele>698.3333333333334</ele><time>2026-03-29T13:04:40.973Z</time></trkpt><trkpt lat="-24.987692919096585" lon="-53.42578874371304"><ele>697.1666666666666</ele><time>2026-03-29T13:08:01.973Z</time></trkpt><trkpt lat="-24.987744487722253" lon="-53.425872605098476"><ele>696.0</ele><time>2026-03-29T13:08:04.973Z</time></trkpt><trkpt lat="-24.987791304982828" lon="-53.42593896460552"><ele>696.0</ele><time>2026-03-29T13:08:07.973Z</time></trkpt><trkpt lat="-24.987822456398636" lon="-53.42601560378737"><ele>696.0</ele><time>2026-03-29T13:08:11.973Z</time></trkpt><trkpt lat="-24.987853168688428" lon="-53.426104568704794"><ele>696.0</ele><time>2026-03-29T13:08:15.973Z</time></trkpt><trkpt lat="-24.987872594378157" lon="-53.42617552821143"><ele>696.0</ele><time>2026-03-29T13:08:17.973Z</time></trkpt><trkpt lat="-24.987862469349498" lon="-53.426244293687276"><ele>696.0</ele><time>2026-03-29T13:08:19.973Z</time></trkpt><trkpt lat="-24.987831979493528" lon="-53.42634687595337"><ele>696.0</ele><time>2026-03-29T13:08:21.973Z</time></trkpt><trkpt lat="-24.987832506118686" lon="-53.426437154337364"><ele>697.7142857142857</ele><time>2026-03-29T13:08:23.973Z</time></trkpt><trkpt lat="-24.98784573822062" lon="-53.426505347535844"><ele>699.4285714285714</ele><time>2026-03-29T13:08:27.973Z</time></trkpt><trkpt lat="-24.98784320511394" lon="-53.42658455538504"><ele>701.1428571428571</ele><time>2026-03-29T13:08:32.973Z</time></trkpt><trkpt lat="-24.9878316869469" lon="-53.42665563448048"><ele>702.8571428571429</ele><time>2026-03-29T13:08:35.973Z</time></trkpt><trkpt lat="-24.98784968330379" lon="-53.42673292527082"><ele>704.5714285714286</ele><time>2026-03-29T13:08:37.973Z</time></trkpt><trkpt lat="-24.987897982948137" lon="-53.42680170925233"><ele>706.2857142857143</ele><time>2026-03-29T13:08:40.973Z</time></trkpt><trkpt lat="-24.987933080482673" lon="-53.42686053622088"><ele>708.0</ele><time>2026-03-29T13:08:42.973Z</time></trkpt><trkpt lat="-24.987956214021263" lon="-53.42693016182918"><ele>708.0</ele><time>2026-03-29T13:08:45.973Z</time></trkpt><trkpt lat="-24.98799420791349" lon="-53.42699728657193"><ele>708.0</ele><time>2026-03-29T13:08:48.973Z</time></trkpt><trkpt lat="-24.988034589061353" lon="-53.427068591035585"><ele>708.0</ele><time>2026-03-29T13:08:53.972Z</time></trkpt><trkpt lat="-24.988051851884286" lon="-53.42714499542988"><ele>708.0</ele><time>2026-03-29T13:08:57.972Z</time></trkpt><trkpt lat="-24.988081503232287" lon="-53.4272190112469"><ele>708.0</ele><time>2026-03-29T13:09:00.972Z</time></trkpt><trkpt lat="-24.988139609112704" lon="-53.42727699238725"><ele>708.0</ele><time>2026-03-29T13:09:04.972Z</time></trkpt><trkpt lat="-24.988140742852234" lon="-53.427363039593395"><ele>708.0</ele><time>2026-03-29T13:09:06.972Z</time></trkpt><trkpt lat="-24.988158487353104" lon="-53.427490119519334"><ele>710.0</ele><time>2026-03-29T13:09:08.972Z</time></trkpt><trkpt lat="-24.98818074193797" lon="-53.42755613554434"><ele>712.0</ele><time>2026-03-29T13:09:10.972Z</time></trkpt><trkpt lat="-24.988241864821166" lon="-53.427676560593525"><ele>714.0</ele><time>2026-03-29T13:09:12.972Z</time></trkpt><trkpt lat="-24.988255281606886" lon="-53.42774784583236"><ele>716.0</ele><time>2026-03-29T13:09:13.972Z</time></trkpt><trkpt lat="-24.98829665574078" lon="-53.42788961094903"><ele>718.0</ele><time>2026-03-29T13:09:15.972Z</time></trkpt><trkpt lat="-24.98832696393489" lon="-53.42798386395364"><ele>718.0</ele><time>2026-03-29T13:09:17.972Z</time></trkpt><trkpt lat="-24.988340339302482" lon="-53.42807023175566"><ele>718.0</ele><time>2026-03-29T13:09:18.972Z</time></trkpt><trkpt lat="-24.988367688038373" lon="-53.42818554608726"><ele>718.0</ele><time>2026-03-29T13:09:20.972Z</time></trkpt><trkpt lat="-24.988400579224752" lon="-53.428352638891354"><ele>718.0</ele><time>2026-03-29T13:09:22.972Z</time></trkpt><trkpt lat="-24.988412052361607" lon="-53.42845636316026"><ele>718.0</ele><time>2026-03-29T13:09:23.972Z</time></trkpt><trkpt lat="-24.988427429071457" lon="-53.428541850793245"><ele>715.3333333333334</ele><time>2026-03-29T13:09:24.972Z</time></trkpt><trkpt lat="-24.988448653717345" lon="-53.42865008965558"><ele>712.6666666666667</ele><time>2026-03-29T13:09:26.972Z</time></trkpt><trkpt lat="-24.988480556121893" lon="-53.42874610418268"><ele>710.0</ele><time>2026-03-29T13:09:28.972Z</time></trkpt><trkpt lat="-24.988519801509796" lon="-53.42882704279839"><ele>707.3333333333334</ele><time>2026-03-29T13:09:30.972Z</time></trkpt><trkpt lat="-24.988492332770157" lon="-53.428895228636485"><ele>704.6666666666666</ele><time>2026-03-29T13:09:35.972Z</time></trkpt><trkpt lat="-24.98843378539103" lon="-53.428939163577"><ele>702.0</ele><time>2026-03-29T13:11:01.973Z</time></trkpt><trkpt lat="-24.988387927289253" lon="-53.42887914749117"><ele>704.3333333333334</ele><time>2026-03-29T13:11:04.973Z</time></trkpt><trkpt lat="-24.98833637308001" lon="-53.42883685473192"><ele>706.6666666666666</ele><time>2026-03-29T13:11:15.973Z</time></trkpt><trkpt lat="-24.988262662354007" lon="-53.428782936063136"><ele>709.0</ele><time>2026-03-29T13:14:56.973Z</time></trkpt><trkpt lat="-24.988243188395508" lon="-53.42870670636113"><ele>711.3333333333333</ele><time>2026-03-29T13:14:57.973Z</time></trkpt><trkpt lat="-24.98821917732114" lon="-53.42862224081473"><ele>713.6666666666666</ele><time>2026-03-29T13:14:58.973Z</time></trkpt><trkpt lat="-24.988198533737968" lon="-53.42851059847001"><ele>716.0</ele><time>2026-03-29T13:14:59.973Z</time></trkpt><trkpt lat="-24.988186989695397" lon="-53.42837375373963"><ele>716.6666666666666</ele><time>2026-03-29T13:15:00.973Z</time></trkpt><trkpt lat="-24.98816556381555" lon="-53.42819195897181"><ele>717.3333333333334</ele><time>2026-03-29T13:15:01.973Z</time></trkpt><trkpt lat="-24.988125474155883" lon="-53.42800094159415"><ele>718.0</ele><time>2026-03-29T13:15:02.973Z</time></trkpt><trkpt lat="-24.98808259325139" lon="-53.427821655874816"><ele>718.0</ele><time>2026-03-29T13:15:03.973Z</time></trkpt><trkpt lat="-24.98804958784902" lon="-53.42767752905456"><ele>718.0</ele><time>2026-03-29T13:15:04.973Z</time></trkpt><trkpt lat="-24.988026114439926" lon="-53.42756656963852"><ele>718.0</ele><time>2026-03-29T13:15:05.973Z</time></trkpt><trkpt lat="-24.987979689067885" lon="-53.427463514666734"><ele>718.0</ele><time>2026-03-29T13:15:06.973Z</time></trkpt><trkpt lat="-24.987913855292238" lon="-53.427351696621365"><ele>718.0</ele><time>2026-03-29T13:15:07.973Z</time></trkpt><trkpt lat="-24.98781063309328" lon="-53.427222468416275"><ele>718.0</ele><time>2026-03-29T13:15:08.973Z</time></trkpt><trkpt lat="-24.98771275721398" lon="-53.42710012535177"><ele>718.0</ele><time>2026-03-29T13:15:09.973Z</time></trkpt><trkpt lat="-24.9876329645342" lon="-53.42698941578408"><ele>718.0</ele><time>2026-03-29T13:15:10.973Z</time></trkpt><trkpt lat="-24.987577707843514" lon="-53.426889685959"><ele>718.3333333333334</ele><time>2026-03-29T13:15:11.973Z</time></trkpt><trkpt lat="-24.987542460284907" lon="-53.426807964087246"><ele>718.6666666666667</ele><time>2026-03-29T13:15:12.973Z</time></trkpt><trkpt lat="-24.987495816317775" lon="-53.42673975449554"><ele>719.0</ele><time>2026-03-29T13:15:13.973Z</time></trkpt><trkpt lat="-24.987443690603286" lon="-53.42668282406422"><ele>719.3333333333334</ele><time>2026-03-29T13:15:14.973Z</time></trkpt><trkpt lat="-24.987368765691645" lon="-53.42663328060934"><ele>719.6666666666666</ele><time>2026-03-29T13:15:15.972Z</time></trkpt><trkpt lat="-24.987281341658907" lon="-53.426595806820465"><ele>720.0</ele><time>2026-03-29T13:15:16.972Z</time></trkpt><trkpt lat="-24.98717546809671" lon="-53.42656556476344"><ele>720.0</ele><time>2026-03-29T13:15:17.972Z</time></trkpt><trkpt lat="-24.987092352678726" lon="-53.42653742248428"><ele>720.0</ele><time>2026-03-29T13:15:18.972Z</time></trkpt><trkpt lat="-24.98703380920329" lon="-53.426494090431355"><ele>720.0</ele><time>2026-03-29T13:15:19.972Z</time></trkpt><trkpt lat="-24.98702129322036" lon="-53.426366870782935"><ele>720.0</ele><time>2026-03-29T13:15:21.972Z</time></trkpt><trkpt lat="-24.98704267783475" lon="-53.42627427482369"><ele>720.0</ele><time>2026-03-29T13:15:22.972Z</time></trkpt><trkpt lat="-24.98702273050951" lon="-53.42615213601209"><ele>718.6666666666666</ele><time>2026-03-29T13:15:23.972Z</time></trkpt><trkpt lat="-24.986991757858167" lon="-53.42605032251919"><ele>717.3333333333334</ele><time>2026-03-29T13:15:24.972Z</time></trkpt><trkpt lat="-24.98698421257995" lon="-53.42595433560608"><ele>716.0</ele><time>2026-03-29T13:15:25.972Z</time></trkpt><trkpt lat="-24.98695364725211" lon="-53.4258772031008"><ele>714.6666666666667</ele><time>2026-03-29T13:15:26.972Z</time></trkpt><trkpt lat="-24.986931492368253" lon="-53.42580410995734"><ele>713.3333333333334</ele><time>2026-03-29T13:15:27.972Z</time></trkpt><trkpt lat="-24.986907726666228" lon="-53.42568766412294"><ele>712.0</ele><time>2026-03-29T13:15:29.972Z</time></trkpt><trkpt lat="-24.98691113028528" lon="-53.425597067334465"><ele>712.0</ele><time>2026-03-29T13:15:30.972Z</time></trkpt><trkpt lat="-24.986888188824572" lon="-53.42550745635107"><ele>712.0</ele><time>2026-03-29T13:15:32.972Z</time></trkpt><trkpt lat="-24.986861184550907" lon="-53.42543203955918"><ele>712.0</ele><time>2026-03-29T13:15:34.972Z</time></trkpt><trkpt lat="-24.986820573167527" lon="-53.425327299396116"><ele>712.0</ele><time>2026-03-29T13:15:37.972Z</time></trkpt><trkpt lat="-24.986801232347947" lon="-53.425195712633865"><ele>712.0</ele><time>2026-03-29T13:15:39.794Z</time></trkpt><trkpt lat="-24.986781936257" lon="-53.425111571153494"><ele>712.8333333333334</ele><time>2026-03-29T13:15:40.794Z</time></trkpt><trkpt lat="-24.986716641534624" lon="-53.425032550621"><ele>713.6666666666667</ele><time>2026-03-29T13:15:41.794Z</time></trkpt><trkpt lat="-24.98665247004751" lon="-53.424997002233226"><ele>714.5</ele><time>2026-03-29T13:15:42.794Z</time></trkpt><trkpt lat="-24.986588355433096" lon="-53.424941221919674"><ele>715.3333333333334</ele><time>2026-03-29T13:15:43.793Z</time></trkpt><trkpt lat="-24.986515087798853" lon="-53.42491215252992"><ele>716.1666666666666</ele><time>2026-03-29T13:15:44.793Z</time></trkpt><trkpt lat="-24.98643461091754" lon="-53.424873991620096"><ele>717.0</ele><time>2026-03-29T13:15:45.793Z</time></trkpt><trkpt lat="-24.986346088957536" lon="-53.42481951985112"><ele>717.0</ele><time>2026-03-29T13:15:46.793Z</time></trkpt><trkpt lat="-24.986260013917608" lon="-53.42478859470853"><ele>717.0</ele><time>2026-03-29T13:15:47.793Z</time></trkpt><trkpt lat="-24.986182192499466" lon="-53.42477451485317"><ele>717.0</ele><time>2026-03-29T13:15:48.793Z</time></trkpt><trkpt lat="-24.986119483784915" lon="-53.4247676240954"><ele>717.0</ele><time>2026-03-29T13:15:49.793Z</time></trkpt><trkpt lat="-24.98602524965981" lon="-53.4247581352694"><ele>717.0</ele><time>2026-03-29T13:15:50.793Z</time></trkpt><trkpt lat="-24.985907693317934" lon="-53.424754456317785"><ele>717.0</ele><time>2026-03-29T13:15:51.793Z</time></trkpt><trkpt lat="-24.98577059112415" lon="-53.42474553261379"><ele>718.0</ele><time>2026-03-29T13:15:52.793Z</time></trkpt><trkpt lat="-24.98563165978421" lon="-53.42474781033801"><ele>719.0</ele><time>2026-03-29T13:15:53.793Z</time></trkpt><trkpt lat="-24.985490745389665" lon="-53.42474610834367"><ele>720.0</ele><time>2026-03-29T13:15:54.793Z</time></trkpt><trkpt lat="-24.985391118043037" lon="-53.424757555118205"><ele>721.0</ele><time>2026-03-29T13:15:55.793Z</time></trkpt><trkpt lat="-24.98528424055073" lon="-53.42475915100112"><ele>721.0</ele><time>2026-03-29T13:15:56.793Z</time></trkpt><trkpt lat="-24.985175249975775" lon="-53.424765916279306"><ele>721.0</ele><time>2026-03-29T13:15:57.793Z</time></trkpt><trkpt lat="-24.985086196171427" lon="-53.42477792236457"><ele>721.0</ele><time>2026-03-29T13:15:58.793Z</time></trkpt><trkpt lat="-24.984995221852262" lon="-53.424764708512946"><ele>721.0</ele><time>2026-03-29T13:15:59.793Z</time></trkpt><trkpt lat="-24.98491069079369" lon="-53.424736643057564"><ele>721.0</ele><time>2026-03-29T13:16:00.793Z</time></trkpt><trkpt lat="-24.98478693061922" lon="-53.42469262811722"><ele>721.1666666666667</ele><time>2026-03-29T13:16:02.793Z</time></trkpt><trkpt lat="-24.984686011656557" lon="-53.42467174602441"><ele>721.3333333333334</ele><time>2026-03-29T13:16:04.793Z</time></trkpt><trkpt lat="-24.984628363411304" lon="-53.424637833484894"><ele>721.5</ele><time>2026-03-29T13:16:06.793Z</time></trkpt><trkpt lat="-24.984570876579525" lon="-53.424534621822126"><ele>721.6666666666666</ele><time>2026-03-29T13:16:08.793Z</time></trkpt><trkpt lat="-24.984615254886908" lon="-53.424477284015225"><ele>721.8333333333333</ele><time>2026-03-29T13:16:09.793Z</time></trkpt><trkpt lat="-24.98464605912585" lon="-53.42439128285516"><ele>722.0</ele><time>2026-03-29T13:16:10.793Z</time></trkpt><trkpt lat="-24.98469060491123" lon="-53.42432119169744"><ele>721.0</ele><time>2026-03-29T13:16:11.793Z</time></trkpt><trkpt lat="-24.984741343316408" lon="-53.42426161715764"><ele>720.0</ele><time>2026-03-29T13:16:12.793Z</time></trkpt><trkpt lat="-24.98480391131451" lon="-53.42420405370943"><ele>719.0</ele><time>2026-03-29T13:16:13.793Z</time></trkpt><trkpt lat="-24.984868549331658" lon="-53.424152452450976"><ele>718.0</ele><time>2026-03-29T13:16:14.793Z</time></trkpt><trkpt lat="-24.984929849265974" lon="-53.42409625571339"><ele>717.0</ele><time>2026-03-29T13:16:15.793Z</time></trkpt><trkpt lat="-24.984998590309083" lon="-53.42405159315822"><ele>716.0</ele><time>2026-03-29T13:16:16.793Z</time></trkpt><trkpt lat="-24.985046958569786" lon="-53.42398408898995"><ele>716.0</ele><time>2026-03-29T13:16:18.793Z</time></trkpt><trkpt lat="-24.985048800505055" lon="-53.42391291813343"><ele>716.0</ele><time>2026-03-29T13:16:39.793Z</time></trkpt><trkpt lat="-24.984996780591025" lon="-53.42384255583545"><ele>716.0</ele><time>2026-03-29T13:16:45.793Z</time></trkpt><trkpt lat="-24.98490878442195" lon="-53.4238110695414"><ele>716.0</ele><time>2026-03-29T13:16:48.793Z</time></trkpt><trkpt lat="-24.984844655853784" lon="-53.4237853395979"><ele>716.0</ele><time>2026-03-29T13:16:51.793Z</time></trkpt><trkpt lat="-24.984837479140474" lon="-53.423697418396536"><ele>716.0</ele><time>2026-03-29T13:16:53.793Z</time></trkpt><trkpt lat="-24.98484843774918" lon="-53.42359827623469"><ele>716.0</ele><time>2026-03-29T13:16:56.793Z</time></trkpt><trkpt lat="-24.984861868905504" lon="-53.42350692861113"><ele>716.0</ele><time>2026-03-29T13:16:58.792Z</time></trkpt><trkpt lat="-24.984866018115742" lon="-53.42343752570375"><ele>716.0</ele><time>2026-03-29T13:17:02.792Z</time></trkpt><trkpt lat="-24.984909807800122" lon="-53.42334043799558"><ele>716.0</ele><time>2026-03-29T13:17:04.792Z</time></trkpt><trkpt lat="-24.98495308504164" lon="-53.423259635551744"><ele>716.0</ele><time>2026-03-29T13:17:06.792Z</time></trkpt><trkpt lat="-24.98499058016069" lon="-53.42317670316355"><ele>716.0</ele><time>2026-03-29T13:17:08.792Z</time></trkpt><trkpt lat="-24.984994129548685" lon="-53.42306871088204"><ele>716.0</ele><time>2026-03-29T13:17:11.792Z</time></trkpt><trkpt lat="-24.98499898817204" lon="-53.42298703038377"><ele>716.0</ele><time>2026-03-29T13:17:12.792Z</time></trkpt><trkpt lat="-24.985020199223307" lon="-53.422895252417064"><ele>716.0</ele><time>2026-03-29T13:17:14.792Z</time></trkpt><trkpt lat="-24.98505293813398" lon="-53.42283052873516"><ele>716.0</ele><time>2026-03-29T13:17:17.792Z</time></trkpt><trkpt lat="-24.98509638804575" lon="-53.42276009000523"><ele>716.0</ele><time>2026-03-29T13:17:19.792Z</time></trkpt><trkpt lat="-24.98512904862464" lon="-53.42267363897244"><ele>716.0</ele><time>2026-03-29T13:17:22.792Z</time></trkpt><trkpt lat="-24.985161537905256" lon="-53.42258786289052"><ele>713.8333333333333</ele><time>2026-03-29T13:17:25.792Z</time></trkpt><trkpt lat="-24.985145352084068" lon="-53.42250766846418"><ele>711.6666666666666</ele><time>2026-03-29T13:17:27.792Z</time></trkpt><trkpt lat="-24.985173256752198" lon="-53.4224367300985"><ele>709.5</ele><time>2026-03-29T13:17:31.791Z</time></trkpt><trkpt lat="-24.985153668808685" lon="-53.422320404916256"><ele>707.3333333333334</ele><time>2026-03-29T13:17:35.791Z</time></trkpt><trkpt lat="-24.985164616137986" lon="-53.42224285663654"><ele>705.1666666666667</ele><time>2026-03-29T13:17:37.791Z</time></trkpt><trkpt lat="-24.985144633267" lon="-53.42217115724805"><ele>703.0</ele><time>2026-03-29T13:17:40.791Z</time></trkpt><trkpt lat="-24.98514202277055" lon="-53.422086240519114"><ele>701.8333333333334</ele><time>2026-03-29T13:17:43.791Z</time></trkpt><trkpt lat="-24.985140886993502" lon="-53.42199470291459"><ele>700.6666666666667</ele><time>2026-03-29T13:17:47.791Z</time></trkpt><trkpt lat="-24.985118555502858" lon="-53.421926325173445"><ele>699.5</ele><time>2026-03-29T13:17:49.791Z</time></trkpt><trkpt lat="-24.985124213088266" lon="-53.421830631487005"><ele>698.3333333333334</ele><time>2026-03-29T13:17:52.791Z</time></trkpt><trkpt lat="-24.985084339973785" lon="-53.42172810840291"><ele>697.1666666666666</ele><time>2026-03-29T13:17:54.791Z</time></trkpt><trkpt lat="-24.985075021963407" lon="-53.421625899169385"><ele>696.0</ele><time>2026-03-29T13:17:56.791Z</time></trkpt><trkpt lat="-24.985033570927826" lon="-53.42155776674241"><ele>697.1666666666666</ele><time>2026-03-29T13:17:58.791Z</time></trkpt><trkpt lat="-24.984979980067035" lon="-53.42147923314728"><ele>698.3333333333334</ele><time>2026-03-29T13:18:00.791Z</time></trkpt><trkpt lat="-24.984963090142053" lon="-53.4213993661784"><ele>699.5</ele><time>2026-03-29T13:18:02.791Z</time></trkpt><trkpt lat="-24.984928702489796" lon="-53.421299041795606"><ele>700.6666666666667</ele><time>2026-03-29T13:18:05.79Z</time></trkpt><trkpt lat="-24.984910925769572" lon="-53.42120640694229"><ele>701.8333333333334</ele><time>2026-03-29T13:18:08.79Z</time></trkpt><trkpt lat="-24.98492945614435" lon="-53.42110374771127"><ele>703.0</ele><time>2026-03-29T13:18:11.79Z</time></trkpt><trkpt lat="-24.98493293240899" lon="-53.421033350943326"><ele>703.0</ele><time>2026-03-29T13:18:15.79Z</time></trkpt><trkpt lat="-24.984942645127532" lon="-53.42095775708264"><ele>703.0</ele><time>2026-03-29T13:18:21.79Z</time></trkpt><trkpt lat="-24.98492942071638" lon="-53.42087747477131"><ele>703.0</ele><time>2026-03-29T13:18:30.79Z</time></trkpt><trkpt lat="-24.984863912754864" lon="-53.42082005172452"><ele>703.0</ele><time>2026-03-29T13:18:32.79Z</time></trkpt><trkpt lat="-24.984830448144784" lon="-53.42075464236885"><ele>703.0</ele><time>2026-03-29T13:18:34.79Z</time></trkpt><trkpt lat="-24.98480844763073" lon="-53.42068340706049"><ele>703.0</ele><time>2026-03-29T13:18:37.789Z</time></trkpt><trkpt lat="-24.984777474311105" lon="-53.420612733736455"><ele>703.0</ele><time>2026-03-29T13:18:40.789Z</time></trkpt><trkpt lat="-24.984743066139284" lon="-53.4205389403787"><ele>703.0</ele><time>2026-03-29T13:18:43.79Z</time></trkpt><trkpt lat="-24.984701537707608" lon="-53.420476102175954"><ele>703.0</ele><time>2026-03-29T13:18:48.789Z</time></trkpt><trkpt lat="-24.98468065941078" lon="-53.42040186202287"><ele>703.0</ele><time>2026-03-29T13:18:55.789Z</time></trkpt><trkpt lat="-24.98469170230772" lon="-53.42030755463132"><ele>703.0</ele><time>2026-03-29T13:19:22.788Z</time></trkpt><trkpt lat="-24.984693612757678" lon="-53.42041034950095"><ele>703.0</ele><time>2026-03-29T13:19:28.788Z</time></trkpt><trkpt lat="-24.984684338874963" lon="-53.42049359802786"><ele>703.0</ele><time>2026-03-29T13:19:30.788Z</time></trkpt><trkpt lat="-24.984719657229398" lon="-53.4205866069295"><ele>703.0</ele><time>2026-03-29T13:19:33.788Z</time></trkpt><trkpt lat="-24.98476658974504" lon="-53.42064098788879"><ele>703.0</ele><time>2026-03-29T13:19:36.788Z</time></trkpt><trkpt lat="-24.984827864843318" lon="-53.42070400825779"><ele>703.0</ele><time>2026-03-29T13:19:41.788Z</time></trkpt><trkpt lat="-24.984866613321422" lon="-53.420776261901075"><ele>703.0</ele><time>2026-03-29T13:19:49.787Z</time></trkpt><trkpt lat="-24.984905606405206" lon="-53.42087569716229"><ele>703.0</ele><time>2026-03-29T13:20:11.787Z</time></trkpt><trkpt lat="-24.984829564125324" lon="-53.42080245838334"><ele>703.0</ele><time>2026-03-29T13:20:16.787Z</time></trkpt><trkpt lat="-24.984805736656227" lon="-53.42071715749101"><ele>703.0</ele><time>2026-03-29T13:20:18.787Z</time></trkpt><trkpt lat="-24.984755123948773" lon="-53.420663658852895"><ele>703.0</ele><time>2026-03-29T13:20:20.787Z</time></trkpt><trkpt lat="-24.984735205858065" lon="-53.42059262146053"><ele>703.0</ele><time>2026-03-29T13:20:24.786Z</time></trkpt><trkpt lat="-24.98470292493456" lon="-53.42051444536783"><ele>703.0</ele><time>2026-03-29T13:20:28.786Z</time></trkpt><trkpt lat="-24.98467261791841" lon="-53.42044902153114"><ele>703.0</ele><time>2026-03-29T13:20:37.786Z</time></trkpt><trkpt lat="-24.984672148969413" lon="-53.4203676796592"><ele>703.0</ele><time>2026-03-29T13:20:54.786Z</time></trkpt><trkpt lat="-24.98470359966072" lon="-53.420435801396984"><ele>703.0</ele><time>2026-03-29T13:21:43.784Z</time></trkpt><trkpt lat="-24.984731250871405" lon="-53.420543801392846"><ele>703.0</ele><time>2026-03-29T13:21:45.784Z</time></trkpt><trkpt lat="-24.984781107740435" lon="-53.42065618420803"><ele>703.0</ele><time>2026-03-29T13:21:47.784Z</time></trkpt><trkpt lat="-24.984840767433933" lon="-53.42068737806418"><ele>703.0</ele><time>2026-03-29T13:21:53.784Z</time></trkpt><trkpt lat="-24.9848594103792" lon="-53.420761067682534"><ele>703.0</ele><time>2026-03-29T13:21:59.784Z</time></trkpt><trkpt lat="-24.98491206971213" lon="-53.42082820165724"><ele>703.0</ele><time>2026-03-29T13:22:08.783Z</time></trkpt><trkpt lat="-24.98485096380166" lon="-53.42074536461563"><ele>703.0</ele><time>2026-03-29T13:22:58.783Z</time></trkpt><trkpt lat="-24.98482464894655" lon="-53.42067754104979"><ele>703.0</ele><time>2026-03-29T13:23:00.783Z</time></trkpt><trkpt lat="-24.984788404385537" lon="-53.420609403336854"><ele>703.0</ele><time>2026-03-29T13:23:02.783Z</time></trkpt><trkpt lat="-24.984748520520593" lon="-53.42054805196225"><ele>703.0</ele><time>2026-03-29T13:23:05.782Z</time></trkpt><trkpt lat="-24.98470926374294" lon="-53.420483591373284"><ele>703.0</ele><time>2026-03-29T13:23:10.782Z</time></trkpt><trkpt lat="-24.984676062725555" lon="-53.42040307186451"><ele>703.0</ele><time>2026-03-29T13:23:18.782Z</time></trkpt><trkpt lat="-24.984657729901098" lon="-53.420309615006545"><ele>703.0</ele><time>2026-03-29T13:25:36.778Z</time></trkpt><trkpt lat="-24.9847368859561" lon="-53.42030079873769"><ele>703.8333333333334</ele><time>2026-03-29T13:25:40.778Z</time></trkpt><trkpt lat="-24.984809410680064" lon="-53.420261873142174"><ele>704.6666666666667</ele><time>2026-03-29T13:25:45.778Z</time></trkpt><trkpt lat="-24.984817899626123" lon="-53.4201836633021"><ele>705.5</ele><time>2026-03-29T13:25:49.778Z</time></trkpt><trkpt lat="-24.984826661852974" lon="-53.42010765779972"><ele>706.3333333333334</ele><time>2026-03-29T13:25:52.778Z</time></trkpt><trkpt lat="-24.9847953863783" lon="-53.42004718500108"><ele>707.1666666666666</ele><time>2026-03-29T13:25:57.778Z</time></trkpt><trkpt lat="-24.984833861869955" lon="-53.419941468824035"><ele>708.0</ele><time>2026-03-29T13:26:14.777Z</time></trkpt><trkpt lat="-24.984813486514703" lon="-53.41985395924238"><ele>708.0</ele><time>2026-03-29T13:26:22.777Z</time></trkpt><trkpt lat="-24.984796414488798" lon="-53.41976258510792"><ele>708.0</ele><time>2026-03-29T13:26:25.777Z</time></trkpt><trkpt lat="-24.98479182174961" lon="-53.4196735457059"><ele>708.0</ele><time>2026-03-29T13:26:28.777Z</time></trkpt><trkpt lat="-24.98483081556079" lon="-53.41960538939591"><ele>708.0</ele><time>2026-03-29T13:26:30.777Z</time></trkpt><trkpt lat="-24.98487066744029" lon="-53.41950140225682"><ele>708.0</ele><time>2026-03-29T13:26:33.777Z</time></trkpt><trkpt lat="-24.984916255259733" lon="-53.419415877991874"><ele>708.0</ele><time>2026-03-29T13:26:35.777Z</time></trkpt><trkpt lat="-24.98492041655537" lon="-53.41934084232043"><ele>708.5714285714286</ele><time>2026-03-29T13:26:38.777Z</time></trkpt><trkpt lat="-24.98494508109533" lon="-53.41925866498022"><ele>709.1428571428571</ele><time>2026-03-29T13:26:42.776Z</time></trkpt><trkpt lat="-24.98494714975015" lon="-53.419179488276896"><ele>709.7142857142857</ele><time>2026-03-29T13:26:45.776Z</time></trkpt><trkpt lat="-24.984928919990626" lon="-53.41909587460754"><ele>710.2857142857142</ele><time>2026-03-29T13:26:49.776Z</time></trkpt><trkpt lat="-24.98492872567286" lon="-53.4190201097317"><ele>710.8571428571429</ele><time>2026-03-29T13:26:52.776Z</time></trkpt><trkpt lat="-24.98493941057233" lon="-53.41894154411487"><ele>711.4285714285713</ele><time>2026-03-29T13:26:55.777Z</time></trkpt><trkpt lat="-24.984946263637955" lon="-53.41886169372087"><ele>712.0</ele><time>2026-03-29T13:26:58.776Z</time></trkpt><trkpt lat="-24.984939191191287" lon="-53.41877751509068"><ele>712.1666666666667</ele><time>2026-03-29T13:27:00.777Z</time></trkpt><trkpt lat="-24.98492827752454" lon="-53.41868741906578"><ele>712.3333333333334</ele><time>2026-03-29T13:27:05.777Z</time></trkpt><trkpt lat="-24.98487926738264" lon="-53.418605932610596"><ele>712.5</ele><time>2026-03-29T13:27:08.776Z</time></trkpt><trkpt lat="-24.984869390378496" lon="-53.41853372343418"><ele>712.6666666666666</ele><time>2026-03-29T13:27:12.776Z</time></trkpt><trkpt lat="-24.98484341041008" lon="-53.418467564650676"><ele>712.8333333333333</ele><time>2026-03-29T13:27:20.776Z</time></trkpt><trkpt lat="-24.984736479664203" lon="-53.41845405360467"><ele>713.0</ele><time>2026-03-29T13:27:26.776Z</time></trkpt><trkpt lat="-24.984650134508353" lon="-53.41839745385495"><ele>713.0</ele><time>2026-03-29T13:27:30.775Z</time></trkpt><trkpt lat="-24.984651688882394" lon="-53.41830674762474"><ele>713.0</ele><time>2026-03-29T13:27:34.775Z</time></trkpt><trkpt lat="-24.984629649445246" lon="-53.418220948634065"><ele>713.0</ele><time>2026-03-29T13:27:37.775Z</time></trkpt><trkpt lat="-24.984609266520334" lon="-53.41815047218732"><ele>713.0</ele><time>2026-03-29T13:27:41.775Z</time></trkpt><trkpt lat="-24.984602215630236" lon="-53.41804658898873"><ele>713.0</ele><time>2026-03-29T13:27:45.775Z</time></trkpt><trkpt lat="-24.984573651970678" lon="-53.41794951000287"><ele>713.0</ele><time>2026-03-29T13:27:49.775Z</time></trkpt><trkpt lat="-24.984561957625896" lon="-53.41787597436711"><ele>711.4285714285714</ele><time>2026-03-29T13:27:52.775Z</time></trkpt><trkpt lat="-24.98453785540511" lon="-53.41780351265028"><ele>709.8571428571429</ele><time>2026-03-29T13:27:55.775Z</time></trkpt><trkpt lat="-24.98453459593342" lon="-53.41772628144982"><ele>708.2857142857143</ele><time>2026-03-29T13:27:58.775Z</time></trkpt><trkpt lat="-24.984506287389685" lon="-53.41765553758809"><ele>706.7142857142858</ele><time>2026-03-29T13:28:01.774Z</time></trkpt><trkpt lat="-24.98447188639643" lon="-53.41756994113371"><ele>705.1428571428571</ele><time>2026-03-29T13:28:04.774Z</time></trkpt><trkpt lat="-24.98443479520697" lon="-53.41748887065584"><ele>703.5714285714287</ele><time>2026-03-29T13:28:07.774Z</time></trkpt><trkpt lat="-24.984447039654285" lon="-53.41741918078092"><ele>702.0</ele><time>2026-03-29T13:28:09.774Z</time></trkpt><trkpt lat="-24.984487563254092" lon="-53.41733893210532"><ele>702.0</ele><time>2026-03-29T13:28:11.774Z</time></trkpt><trkpt lat="-24.984557826331994" lon="-53.417249226610146"><ele>702.0</ele><time>2026-03-29T13:28:14.774Z</time></trkpt><trkpt lat="-24.984604960084067" lon="-53.41718977081223"><ele>702.0</ele><time>2026-03-29T13:28:22.774Z</time></trkpt><trkpt lat="-24.984667462841426" lon="-53.417089959472754"><ele>702.0</ele><time>2026-03-29T13:28:35.773Z</time></trkpt><trkpt lat="-24.984659750012018" lon="-53.417183675195304"><ele>702.0</ele><time>2026-03-29T13:28:41.773Z</time></trkpt><trkpt lat="-24.984609872990372" lon="-53.417230361168755"><ele>702.0</ele><time>2026-03-29T13:28:48.773Z</time></trkpt><trkpt lat="-24.98453476170414" lon="-53.41722260034226"><ele>702.0000000000001</ele><time>2026-03-29T13:28:51.773Z</time></trkpt><trkpt lat="-24.98449027708241" lon="-53.417168580399235"><ele>702.0</ele><time>2026-03-29T13:28:58.773Z</time></trkpt><trkpt lat="-24.984550001411833" lon="-53.41712381196033"><ele>702.0</ele><time>2026-03-29T13:29:02.772Z</time></trkpt><trkpt lat="-24.98459836465009" lon="-53.41707130368106"><ele>702.0</ele><time>2026-03-29T13:29:14.772Z</time></trkpt><trkpt lat="-24.984668308564334" lon="-53.41703498590305"><ele>702.0</ele><time>2026-03-29T13:29:27.772Z</time></trkpt><trkpt lat="-24.984726696715228" lon="-53.41706589995738"><ele>702.0000000000001</ele><time>2026-03-29T13:29:47.771Z</time></trkpt><trkpt lat="-24.98469767776238" lon="-53.41716823539333"><ele>702.0</ele><time>2026-03-29T13:30:25.77Z</time></trkpt><trkpt lat="-24.984634364316975" lon="-53.41717134432068"><ele>702.0000000000001</ele><time>2026-03-29T13:30:32.77Z</time></trkpt><trkpt lat="-24.984671577642626" lon="-53.41710633494562"><ele>702.0</ele><time>2026-03-29T13:30:57.769Z</time></trkpt><trkpt lat="-24.984747416998406" lon="-53.41707131736398"><ele>702.0</ele><time>2026-03-29T13:31:32.768Z</time></trkpt><trkpt lat="-24.984721313726535" lon="-53.41713825582441"><ele>702.0</ele><time>2026-03-29T13:31:35.768Z</time></trkpt><trkpt lat="-24.984714371936754" lon="-53.417210498454"><ele>702.0</ele><time>2026-03-29T13:31:39.768Z</time></trkpt><trkpt lat="-24.9846522461688" lon="-53.41718563873296"><ele>702.0000000000001</ele><time>2026-03-29T13:31:43.77Z</time></trkpt><trkpt lat="-24.984584515000048" lon="-53.417170086370064"><ele>702.0</ele><time>2026-03-29T13:31:46.776Z</time></trkpt><trkpt lat="-24.98461679974258" lon="-53.417101789848395"><ele>702.0</ele><time>2026-03-29T13:31:56.79Z</time></trkpt><trkpt lat="-24.984703196169573" lon="-53.41709103524783"><ele>702.0</ele><time>2026-03-29T13:32:29.802Z</time></trkpt><trkpt lat="-24.984709813182384" lon="-53.4171732382555"><ele>702.0</ele><time>2026-03-29T13:32:32.802Z</time></trkpt><trkpt lat="-24.984626743445347" lon="-53.417153911243524"><ele>702.0</ele><time>2026-03-29T13:32:42.803Z</time></trkpt><trkpt lat="-24.984565038765606" lon="-53.41713649715053"><ele>702.0</ele><time>2026-03-29T13:32:47.803Z</time></trkpt><trkpt lat="-24.98459712178612" lon="-53.41706620318926"><ele>702.0</ele><time>2026-03-29T13:32:56.803Z</time></trkpt><trkpt lat="-24.984637314553957" lon="-53.417003603949695"><ele>702.0</ele><time>2026-03-29T13:33:20.803Z</time></trkpt><trkpt lat="-24.984726317795687" lon="-53.41707761918941"><ele>702.0</ele><time>2026-03-29T13:36:02.8Z</time></trkpt><trkpt lat="-24.984697527664405" lon="-53.41715251956719"><ele>702.0</ele><time>2026-03-29T13:36:05.8Z</time></trkpt><trkpt lat="-24.984646405915612" lon="-53.41720957691793"><ele>702.0</ele><time>2026-03-29T13:36:12.799Z</time></trkpt><trkpt lat="-24.984578610962554" lon="-53.417234236744065"><ele>702.0</ele><time>2026-03-29T13:36:16.799Z</time></trkpt><trkpt lat="-24.984511590600594" lon="-53.41724552282602"><ele>702.0</ele><time>2026-03-29T13:36:23.799Z</time></trkpt><trkpt lat="-24.984441415953913" lon="-53.417237984546524"><ele>702.0</ele><time>2026-03-29T13:36:35.799Z</time></trkpt><trkpt lat="-24.984381492827847" lon="-53.41732853746793"><ele>702.0</ele><time>2026-03-29T13:37:01.798Z</time></trkpt><trkpt lat="-24.984430434423782" lon="-53.41728205838456"><ele>702.0</ele><time>2026-03-29T13:39:36.795Z</time></trkpt><trkpt lat="-24.984467840356174" lon="-53.417216845140175"><ele>702.0</ele><time>2026-03-29T13:39:44.794Z</time></trkpt><trkpt lat="-24.984421973134005" lon="-53.4171623154441"><ele>702.0</ele><time>2026-03-29T13:48:10.947Z</time></trkpt><trkpt lat="-24.984476689153993" lon="-53.41721652223956"><ele>702.0</ele><time>2026-03-29T13:48:24.947Z</time></trkpt><trkpt lat="-24.98451502474185" lon="-53.417333675753866"><ele>702.0</ele><time>2026-03-29T13:48:27.947Z</time></trkpt><trkpt lat="-24.98455853427259" lon="-53.417456946613655"><ele>702.0</ele><time>2026-03-29T13:48:29.947Z</time></trkpt><trkpt lat="-24.98458583035577" lon="-53.41756678159831"><ele>702.0</ele><time>2026-03-29T13:48:31.947Z</time></trkpt><trkpt lat="-24.984675080408003" lon="-53.4176107351374"><ele>702.0</ele><time>2026-03-29T13:48:33.947Z</time></trkpt><trkpt lat="-24.984712312159658" lon="-53.4176682329122"><ele>702.0</ele><time>2026-03-29T13:48:38.947Z</time></trkpt><trkpt lat="-24.984751420035938" lon="-53.417797643991065"><ele>702.0000000000001</ele><time>2026-03-29T13:48:55.947Z</time></trkpt><trkpt lat="-24.984793953445113" lon="-53.417863476549925"><ele>702.0</ele><time>2026-03-29T13:49:09.947Z</time></trkpt><trkpt lat="-24.984883568181665" lon="-53.417878778960265"><ele>702.0</ele><time>2026-03-29T13:49:14.947Z</time></trkpt><trkpt lat="-24.984920155875656" lon="-53.41782089438664"><ele>702.0</ele><time>2026-03-29T13:49:17.947Z</time></trkpt><trkpt lat="-24.984962607286796" lon="-53.417762450671745"><ele>702.0</ele><time>2026-03-29T13:49:20.947Z</time></trkpt><trkpt lat="-24.985022511391392" lon="-53.417726127500906"><ele>702.0000000000001</ele><time>2026-03-29T13:49:29.947Z</time></trkpt><trkpt lat="-24.985086678285583" lon="-53.417727168225994"><ele>702.0</ele><time>2026-03-29T13:49:38.947Z</time></trkpt><trkpt lat="-24.985126562879792" lon="-53.41779504476656"><ele>701.8333333333334</ele><time>2026-03-29T13:50:03.947Z</time></trkpt><trkpt lat="-24.98510599327251" lon="-53.417900851048465"><ele>701.6666666666666</ele><time>2026-03-29T13:50:06.946Z</time></trkpt><trkpt lat="-24.985056086518984" lon="-53.417976367070736"><ele>701.5</ele><time>2026-03-29T13:50:08.947Z</time></trkpt><trkpt lat="-24.985023402743096" lon="-53.418046204065455"><ele>701.3333333333333</ele><time>2026-03-29T13:50:10.947Z</time></trkpt><trkpt lat="-24.9849438304802" lon="-53.418080124296296"><ele>701.1666666666666</ele><time>2026-03-29T13:50:23.947Z</time></trkpt><trkpt lat="-24.984874983016535" lon="-53.41805799312873"><ele>701.0</ele><time>2026-03-29T13:51:07.946Z</time></trkpt><trkpt lat="-24.984939052725068" lon="-53.41807968707179"><ele>700.6666666666666</ele><time>2026-03-29T13:53:31.947Z</time></trkpt><trkpt lat="-24.984980097494983" lon="-53.418135843990626"><ele>700.3333333333333</ele><time>2026-03-29T13:53:41.947Z</time></trkpt><trkpt lat="-24.985069777653855" lon="-53.41818081119896"><ele>700.0</ele><time>2026-03-29T13:53:43.947Z</time></trkpt><trkpt lat="-24.985142593212434" lon="-53.4182323480659"><ele>699.6666666666666</ele><time>2026-03-29T13:53:45.947Z</time></trkpt><trkpt lat="-24.985212224204783" lon="-53.418257031263465"><ele>699.3333333333334</ele><time>2026-03-29T13:53:48.946Z</time></trkpt><trkpt lat="-24.985270893818107" lon="-53.4182070715201"><ele>699.0</ele><time>2026-03-29T13:53:51.946Z</time></trkpt><trkpt lat="-24.985358821192285" lon="-53.41810099829584"><ele>699.0</ele><time>2026-03-29T13:53:53.946Z</time></trkpt><trkpt lat="-24.985396442154226" lon="-53.41803739418287"><ele>699.0</ele><time>2026-03-29T13:53:55.946Z</time></trkpt><trkpt lat="-24.985428274637762" lon="-53.41797558734187"><ele>699.0</ele><time>2026-03-29T13:54:06.946Z</time></trkpt><trkpt lat="-24.985420190664776" lon="-53.418099145378555"><ele>699.0</ele><time>2026-03-29T13:54:19.947Z</time></trkpt><trkpt lat="-24.985440946610744" lon="-53.41819283029571"><ele>699.0</ele><time>2026-03-29T13:54:22.946Z</time></trkpt><trkpt lat="-24.98538728438249" lon="-53.41824041270063"><ele>699.0</ele><time>2026-03-29T13:54:25.946Z</time></trkpt><trkpt lat="-24.985327302557202" lon="-53.41827203134789"><ele>699.0</ele><time>2026-03-29T13:54:33.946Z</time></trkpt><trkpt lat="-24.985289405390258" lon="-53.418342563613756"><ele>699.0</ele><time>2026-03-29T13:54:41.946Z</time></trkpt><trkpt lat="-24.985223224604066" lon="-53.41835413448244"><ele>699.0</ele><time>2026-03-29T13:55:19.946Z</time></trkpt><trkpt lat="-24.985174916225713" lon="-53.41829850781005"><ele>699.0</ele><time>2026-03-29T13:55:27.946Z</time></trkpt><trkpt lat="-24.98521865081528" lon="-53.41824559495341"><ele>699.0</ele><time>2026-03-29T13:55:30.946Z</time></trkpt><trkpt lat="-24.985245210082496" lon="-53.41816070014192"><ele>699.0</ele><time>2026-03-29T13:55:34.946Z</time></trkpt><trkpt lat="-24.98530863342952" lon="-53.41811068063441"><ele>699.0</ele><time>2026-03-29T13:55:38.946Z</time></trkpt><trkpt lat="-24.98534264122429" lon="-53.418051540708944"><ele>699.0</ele><time>2026-03-29T13:55:44.946Z</time></trkpt><trkpt lat="-24.985420047573264" lon="-53.41800061348098"><ele>699.0</ele><time>2026-03-29T13:56:06.946Z</time></trkpt><trkpt lat="-24.985421762372233" lon="-53.41811281265919"><ele>699.0</ele><time>2026-03-29T13:56:09.946Z</time></trkpt><trkpt lat="-24.985421554504573" lon="-53.418184216894424"><ele>699.0</ele><time>2026-03-29T13:56:11.946Z</time></trkpt><trkpt lat="-24.985375142626907" lon="-53.41823123660057"><ele>699.0</ele><time>2026-03-29T13:56:16.946Z</time></trkpt><trkpt lat="-24.985315471412612" lon="-53.41825888584621"><ele>699.0</ele><time>2026-03-29T13:56:25.946Z</time></trkpt><trkpt lat="-24.98525304445036" lon="-53.41836083847289"><ele>699.0</ele><time>2026-03-29T13:56:54.946Z</time></trkpt><trkpt lat="-24.985285077943526" lon="-53.41842685904265"><ele>699.0</ele><time>2026-03-29T13:57:10.946Z</time></trkpt><trkpt lat="-24.98532248013445" lon="-53.41836020857856"><ele>699.0</ele><time>2026-03-29T13:58:58.946Z</time></trkpt><trkpt lat="-24.985477787808446" lon="-53.4185567547543"><ele>699.0</ele><time>2026-03-29T14:00:00.945Z</time></trkpt><trkpt lat="-24.985461900193073" lon="-53.41862756680814"><ele>699.0</ele><time>2026-03-29T14:00:01.945Z</time></trkpt><trkpt lat="-24.98542369452737" lon="-53.418716426350464"><ele>699.0</ele><time>2026-03-29T14:00:03.945Z</time></trkpt><trkpt lat="-24.985409629829025" lon="-53.418792359028984"><ele>699.0</ele><time>2026-03-29T14:00:05.945Z</time></trkpt><trkpt lat="-24.985418026823673" lon="-53.41889126013345"><ele>699.0</ele><time>2026-03-29T14:00:07.945Z</time></trkpt><trkpt lat="-24.985418692784446" lon="-53.418961994559936"><ele>699.0</ele><time>2026-03-29T14:00:09.945Z</time></trkpt><trkpt lat="-24.985394656104933" lon="-53.419076624783756"><ele>699.0</ele><time>2026-03-29T14:00:11.945Z</time></trkpt><trkpt lat="-24.98533813235559" lon="-53.419145454831366"><ele>699.0</ele><time>2026-03-29T14:00:12.945Z</time></trkpt><trkpt lat="-24.98526889783523" lon="-53.41920642552586"><ele>698.1666666666666</ele><time>2026-03-29T14:00:14.945Z</time></trkpt><trkpt lat="-24.985183914124818" lon="-53.41928274873931"><ele>697.3333333333334</ele><time>2026-03-29T14:00:15.945Z</time></trkpt><trkpt lat="-24.985141781461248" lon="-53.41934241447678"><ele>696.5</ele><time>2026-03-29T14:00:16.945Z</time></trkpt><trkpt lat="-24.985147600669496" lon="-53.41945878742402"><ele>695.6666666666667</ele><time>2026-03-29T14:00:18.945Z</time></trkpt><trkpt lat="-24.98514055508764" lon="-53.41954069444509"><ele>694.8333333333334</ele><time>2026-03-29T14:00:20.945Z</time></trkpt><trkpt lat="-24.98513600776594" lon="-53.41961795684991"><ele>694.0</ele><time>2026-03-29T14:00:22.945Z</time></trkpt><trkpt lat="-24.985167540392133" lon="-53.41968076326521"><ele>694.0</ele><time>2026-03-29T14:00:27.945Z</time></trkpt><trkpt lat="-24.985184747194833" lon="-53.41975216967783"><ele>694.0</ele><time>2026-03-29T14:00:28.945Z</time></trkpt><trkpt lat="-24.98518350476227" lon="-53.41984844536616"><ele>694.0</ele><time>2026-03-29T14:00:30.946Z</time></trkpt><trkpt lat="-24.98517846755288" lon="-53.41995213372985"><ele>694.0</ele><time>2026-03-29T14:00:32.946Z</time></trkpt><trkpt lat="-24.985179760961767" lon="-53.42002671749567"><ele>694.0</ele><time>2026-03-29T14:00:35.946Z</time></trkpt><trkpt lat="-24.985151688690536" lon="-53.42009486366507"><ele>694.0</ele><time>2026-03-29T14:00:41.946Z</time></trkpt><trkpt lat="-24.985145755359614" lon="-53.4201865703363"><ele>694.0</ele><time>2026-03-29T14:00:46.946Z</time></trkpt><trkpt lat="-24.985155034406066" lon="-53.42027993688685"><ele>694.0</ele><time>2026-03-29T14:00:49.946Z</time></trkpt><trkpt lat="-24.98515102312948" lon="-53.42035675732574"><ele>694.0</ele><time>2026-03-29T14:00:52.946Z</time></trkpt><trkpt lat="-24.98520379777598" lon="-53.42042864370296"><ele>694.0</ele><time>2026-03-29T14:00:57.946Z</time></trkpt><trkpt lat="-24.985260701640712" lon="-53.42049593647023"><ele>694.0</ele><time>2026-03-29T14:00:59.945Z</time></trkpt><trkpt lat="-24.985323278898242" lon="-53.420544159761576"><ele>694.0</ele><time>2026-03-29T14:01:01.945Z</time></trkpt><trkpt lat="-24.98539287282683" lon="-53.42059042632869"><ele>693.8333333333334</ele><time>2026-03-29T14:01:03.945Z</time></trkpt><trkpt lat="-24.98543298065543" lon="-53.42067615759177"><ele>693.6666666666667</ele><time>2026-03-29T14:01:05.945Z</time></trkpt><trkpt lat="-24.985460605982468" lon="-53.42075160677727"><ele>693.5</ele><time>2026-03-29T14:01:06.945Z</time></trkpt><trkpt lat="-24.985487556946467" lon="-53.42081856369008"><ele>693.3333333333334</ele><time>2026-03-29T14:01:07.945Z</time></trkpt><trkpt lat="-24.985529194424103" lon="-53.42091293481529"><ele>693.1666666666666</ele><time>2026-03-29T14:01:08.945Z</time></trkpt><trkpt lat="-24.985565730046478" lon="-53.42098793661247"><ele>693.0</ele><time>2026-03-29T14:01:09.945Z</time></trkpt><trkpt lat="-24.98560090142473" lon="-53.42107139494338"><ele>693.0</ele><time>2026-03-29T14:01:10.945Z</time></trkpt><trkpt lat="-24.985645639960758" lon="-53.421189582623605"><ele>693.0</ele><time>2026-03-29T14:01:12.945Z</time></trkpt><trkpt lat="-24.985677825020492" lon="-53.42125215912001"><ele>693.0</ele><time>2026-03-29T14:01:13.945Z</time></trkpt><trkpt lat="-24.985722258665167" lon="-53.42137654920651"><ele>693.0</ele><time>2026-03-29T14:01:15.945Z</time></trkpt><trkpt lat="-24.985740815363616" lon="-53.421460067281245"><ele>693.0</ele><time>2026-03-29T14:01:16.945Z</time></trkpt><trkpt lat="-24.985784484781792" lon="-53.42154977494144"><ele>693.4285714285714</ele><time>2026-03-29T14:01:17.945Z</time></trkpt><trkpt lat="-24.98581293577233" lon="-53.42163059693978"><ele>693.8571428571429</ele><time>2026-03-29T14:01:18.945Z</time></trkpt><trkpt lat="-24.985836230392877" lon="-53.42169635807845"><ele>694.2857142857142</ele><time>2026-03-29T14:01:19.945Z</time></trkpt><trkpt lat="-24.985849905098966" lon="-53.4217976903471"><ele>694.7142857142858</ele><time>2026-03-29T14:01:20.945Z</time></trkpt><trkpt lat="-24.98587052087109" lon="-53.42187825288208"><ele>695.1428571428571</ele><time>2026-03-29T14:01:22.945Z</time></trkpt><trkpt lat="-24.985889681605762" lon="-53.42194481220949"><ele>695.5714285714286</ele><time>2026-03-29T14:01:26.945Z</time></trkpt><trkpt lat="-24.985906262433502" lon="-53.42201543194138"><ele>696.0</ele><time>2026-03-29T14:01:32.945Z</time></trkpt><trkpt lat="-24.985916676426186" lon="-53.42210501275873"><ele>696.1999999999999</ele><time>2026-03-29T14:01:37.945Z</time></trkpt><trkpt lat="-24.985897688768237" lon="-53.42221683636388"><ele>696.4</ele><time>2026-03-29T14:01:40.945Z</time></trkpt><trkpt lat="-24.985862118860226" lon="-53.42228306264739"><ele>696.6</ele><time>2026-03-29T14:01:42.945Z</time></trkpt><trkpt lat="-24.98582472197916" lon="-53.42239718122162"><ele>696.8</ele><time>2026-03-29T14:01:44.945Z</time></trkpt><trkpt lat="-24.985829632424377" lon="-53.42250088146586"><ele>697.0</ele><time>2026-03-29T14:01:46.945Z</time></trkpt><trkpt lat="-24.98591955408101" lon="-53.422599009405786"><ele>697.0</ele><time>2026-03-29T14:01:50.945Z</time></trkpt><trkpt lat="-24.985985032708758" lon="-53.422545907886075"><ele>697.0</ele><time>2026-03-29T14:01:54.945Z</time></trkpt><trkpt lat="-24.986058100487107" lon="-53.42252113520296"><ele>697.0</ele><time>2026-03-29T14:01:56.945Z</time></trkpt><trkpt lat="-24.986155519453348" lon="-53.42251538961415"><ele>697.0</ele><time>2026-03-29T14:01:59.945Z</time></trkpt><trkpt lat="-24.98624214837958" lon="-53.422531876338404"><ele>697.0</ele><time>2026-03-29T14:02:00.945Z</time></trkpt><trkpt lat="-24.986321678010217" lon="-53.42255591816996"><ele>697.0</ele><time>2026-03-29T14:02:02.945Z</time></trkpt><trkpt lat="-24.986357633156945" lon="-53.42261309600614"><ele>697.0</ele><time>2026-03-29T14:02:03.945Z</time></trkpt><trkpt lat="-24.986387860761383" lon="-53.42270119004738"><ele>697.0</ele><time>2026-03-29T14:02:05.945Z</time></trkpt><trkpt lat="-24.986384756893308" lon="-53.42278977592097"><ele>697.0</ele><time>2026-03-29T14:02:07.945Z</time></trkpt><trkpt lat="-24.98632823741584" lon="-53.42287676094551"><ele>697.0</ele><time>2026-03-29T14:02:09.945Z</time></trkpt><trkpt lat="-24.98626089472285" lon="-53.422946663051036"><ele>697.0</ele><time>2026-03-29T14:02:11.945Z</time></trkpt><trkpt lat="-24.98617136368403" lon="-53.42302448084354"><ele>697.6</ele><time>2026-03-29T14:02:13.945Z</time></trkpt><trkpt lat="-24.98608724606995" lon="-53.42311111870587"><ele>698.2</ele><time>2026-03-29T14:02:15.945Z</time></trkpt><trkpt lat="-24.98602151119461" lon="-53.42318138742367"><ele>698.8</ele><time>2026-03-29T14:02:17.945Z</time></trkpt><trkpt lat="-24.98591660009964" lon="-53.42324813755125"><ele>699.4</ele><time>2026-03-29T14:02:19.945Z</time></trkpt><trkpt lat="-24.9858410953456" lon="-53.42329256184656"><ele>700.0</ele><time>2026-03-29T14:02:20.945Z</time></trkpt><trkpt lat="-24.98576355826616" lon="-53.42334042167172"><ele>702.0</ele><time>2026-03-29T14:02:21.945Z</time></trkpt><trkpt lat="-24.985691527163446" lon="-53.423404310292874"><ele>704.0</ele><time>2026-03-29T14:02:22.945Z</time></trkpt><trkpt lat="-24.98563041708099" lon="-53.42345309003052"><ele>706.0</ele><time>2026-03-29T14:02:23.945Z</time></trkpt><trkpt lat="-24.985538836376747" lon="-53.42352890018124"><ele>708.0</ele><time>2026-03-29T14:02:25.945Z</time></trkpt><trkpt lat="-24.985458791966067" lon="-53.423608383817076"><ele>710.0</ele><time>2026-03-29T14:02:27.945Z</time></trkpt><trkpt lat="-24.985385987063115" lon="-53.423686258506855"><ele>710.0</ele><time>2026-03-29T14:02:29.945Z</time></trkpt><trkpt lat="-24.98532710810377" lon="-53.42373005673999"><ele>710.0</ele><time>2026-03-29T14:02:30.945Z</time></trkpt><trkpt lat="-24.985246642450583" lon="-53.42380012876553"><ele>710.0</ele><time>2026-03-29T14:02:32.945Z</time></trkpt><trkpt lat="-24.985172173361367" lon="-53.423866735700194"><ele>710.0</ele><time>2026-03-29T14:02:34.945Z</time></trkpt><trkpt lat="-24.985116713701466" lon="-53.4239118866696"><ele>710.0</ele><time>2026-03-29T14:02:35.945Z</time></trkpt><trkpt lat="-24.985019409216093" lon="-53.42399346911639"><ele>711.0</ele><time>2026-03-29T14:02:37.946Z</time></trkpt><trkpt lat="-24.984943633511353" lon="-53.42405171514552"><ele>712.0</ele><time>2026-03-29T14:02:38.946Z</time></trkpt><trkpt lat="-24.98487820232653" lon="-53.424101398263794"><ele>713.0</ele><time>2026-03-29T14:02:39.946Z</time></trkpt><trkpt lat="-24.9848156432787" lon="-53.42414513566663"><ele>714.0</ele><time>2026-03-29T14:02:40.945Z</time></trkpt><trkpt lat="-24.9847463227013" lon="-53.424200661169124"><ele>715.0</ele><time>2026-03-29T14:02:41.945Z</time></trkpt><trkpt lat="-24.984678377576984" lon="-53.424254651266246"><ele>716.0</ele><time>2026-03-29T14:02:42.945Z</time></trkpt><trkpt lat="-24.984615381264426" lon="-53.42430226401359"><ele>716.0</ele><time>2026-03-29T14:02:43.945Z</time></trkpt><trkpt lat="-24.98456359410831" lon="-53.42434964361828"><ele>716.0</ele><time>2026-03-29T14:02:44.945Z</time></trkpt><trkpt lat="-24.98450480522321" lon="-53.424401232638154"><ele>716.0</ele><time>2026-03-29T14:02:45.945Z</time></trkpt><trkpt lat="-24.98444529049698" lon="-53.42446031532574"><ele>716.0</ele><time>2026-03-29T14:02:46.946Z</time></trkpt><trkpt lat="-24.984382849069725" lon="-53.424523898452975"><ele>716.0</ele><time>2026-03-29T14:02:47.946Z</time></trkpt><trkpt lat="-24.984321418900212" lon="-53.424604536192454"><ele>716.0</ele><time>2026-03-29T14:02:48.946Z</time></trkpt><trkpt lat="-24.984247795586903" lon="-53.42468686499525"><ele>717.1999999999999</ele><time>2026-03-29T14:02:49.945Z</time></trkpt><trkpt lat="-24.98418252338322" lon="-53.4247799800301"><ele>718.4</ele><time>2026-03-29T14:02:50.945Z</time></trkpt><trkpt lat="-24.984116765481588" lon="-53.424869657817986"><ele>719.6</ele><time>2026-03-29T14:02:51.945Z</time></trkpt><trkpt lat="-24.984043566692563" lon="-53.424966082366936"><ele>720.8</ele><time>2026-03-29T14:02:52.945Z</time></trkpt><trkpt lat="-24.983974838511596" lon="-53.42506994592925"><ele>722.0</ele><time>2026-03-29T14:02:53.945Z</time></trkpt><trkpt lat="-24.983904646195175" lon="-53.42517490333325"><ele>722.6</ele><time>2026-03-29T14:02:54.945Z</time></trkpt><trkpt lat="-24.983843525619132" lon="-53.42527669770637"><ele>723.2</ele><time>2026-03-29T14:02:55.945Z</time></trkpt><trkpt lat="-24.98377516753644" lon="-53.425382472315306"><ele>723.8</ele><time>2026-03-29T14:02:56.945Z</time></trkpt><trkpt lat="-24.983703109095316" lon="-53.425488868585774"><ele>724.4</ele><time>2026-03-29T14:02:57.945Z</time></trkpt><trkpt lat="-24.983648766102725" lon="-53.42558189354333"><ele>725.0</ele><time>2026-03-29T14:02:58.945Z</time></trkpt><trkpt lat="-24.983593237153755" lon="-53.42566741259374"><ele>725.8</ele><time>2026-03-29T14:02:59.945Z</time></trkpt><trkpt lat="-24.983542305746052" lon="-53.42574907208986"><ele>726.6</ele><time>2026-03-29T14:03:00.945Z</time></trkpt><trkpt lat="-24.98348760861544" lon="-53.4258315814947"><ele>727.4000000000001</ele><time>2026-03-29T14:03:01.945Z</time></trkpt><trkpt lat="-24.983431703423772" lon="-53.42591159720945"><ele>728.2</ele><time>2026-03-29T14:03:02.945Z</time></trkpt><trkpt lat="-24.98337779235372" lon="-53.42599749619194"><ele>729.0</ele><time>2026-03-29T14:03:03.945Z</time></trkpt><trkpt lat="-24.9833154216635" lon="-53.42609277934009"><ele>729.6666666666666</ele><time>2026-03-29T14:03:04.945Z</time></trkpt><trkpt lat="-24.98325477409363" lon="-53.42618818810395"><ele>730.3333333333334</ele><time>2026-03-29T14:03:05.945Z</time></trkpt><trkpt lat="-24.98320743528244" lon="-53.42626686735807"><ele>731.0</ele><time>2026-03-29T14:03:06.945Z</time></trkpt><trkpt lat="-24.983169111898647" lon="-53.42632816011583"><ele>731.6666666666667</ele><time>2026-03-29T14:03:07.945Z</time></trkpt><trkpt lat="-24.983120088630116" lon="-53.42639389001726"><ele>732.3333333333334</ele><time>2026-03-29T14:03:08.945Z</time></trkpt><trkpt lat="-24.983059022272375" lon="-53.42647497701281"><ele>733.0</ele><time>2026-03-29T14:03:09.945Z</time></trkpt><trkpt lat="-24.98300102171214" lon="-53.426560285283955"><ele>733.5999999999999</ele><time>2026-03-29T14:03:10.945Z</time></trkpt><trkpt lat="-24.982942787531552" lon="-53.4266497957803"><ele>734.1999999999999</ele><time>2026-03-29T14:03:11.945Z</time></trkpt><trkpt lat="-24.982889075401893" lon="-53.42673479957416"><ele>734.8</ele><time>2026-03-29T14:03:12.945Z</time></trkpt><trkpt lat="-24.982829650944293" lon="-53.42681581874863"><ele>735.4</ele><time>2026-03-29T14:03:13.945Z</time></trkpt><trkpt lat="-24.982787632043635" lon="-53.426882994123275"><ele>736.0</ele><time>2026-03-29T14:03:14.945Z</time></trkpt><trkpt lat="-24.98272319503702" lon="-53.426972034929626"><ele>736.0</ele><time>2026-03-29T14:03:16.945Z</time></trkpt><trkpt lat="-24.982685636462087" lon="-53.42703889954535"><ele>736.0</ele><time>2026-03-29T14:03:18.945Z</time></trkpt><trkpt lat="-24.982644933807112" lon="-53.42709601646229"><ele>736.0</ele><time>2026-03-29T14:03:20.945Z</time></trkpt><trkpt lat="-24.98260444870458" lon="-53.42716034482876"><ele>736.0</ele><time>2026-03-29T14:03:22.945Z</time></trkpt><trkpt lat="-24.98261026460473" lon="-53.427232231107695"><ele>736.0</ele><time>2026-03-29T14:03:24.945Z</time></trkpt><trkpt lat="-24.982689670062364" lon="-53.42732566483389"><ele>736.0</ele><time>2026-03-29T14:03:26.945Z</time></trkpt><trkpt lat="-24.982760447507832" lon="-53.427384148482204"><ele>736.0</ele><time>2026-03-29T14:03:27.945Z</time></trkpt><trkpt lat="-24.982853491750365" lon="-53.42743828446556"><ele>736.0</ele><time>2026-03-29T14:03:28.945Z</time></trkpt><trkpt lat="-24.98296308559296" lon="-53.427480757097946"><ele>736.0</ele><time>2026-03-29T14:03:29.945Z</time></trkpt><trkpt lat="-24.98307853191843" lon="-53.42752322990867"><ele>736.0</ele><time>2026-03-29T14:03:30.945Z</time></trkpt><trkpt lat="-24.983191957155565" lon="-53.4275520511731"><ele>736.0</ele><time>2026-03-29T14:03:31.945Z</time></trkpt><trkpt lat="-24.983303416671525" lon="-53.42758936326067"><ele>736.0</ele><time>2026-03-29T14:03:32.945Z</time></trkpt><trkpt lat="-24.98340835820567" lon="-53.42762354193332"><ele>736.0</ele><time>2026-03-29T14:03:33.945Z</time></trkpt><trkpt lat="-24.983516746008018" lon="-53.427659637155074"><ele>736.0</ele><time>2026-03-29T14:03:34.945Z</time></trkpt><trkpt lat="-24.983626892587626" lon="-53.427693725099836"><ele>735.0</ele><time>2026-03-29T14:03:35.945Z</time></trkpt><trkpt lat="-24.983743641958227" lon="-53.42773074836659"><ele>734.0</ele><time>2026-03-29T14:03:36.945Z</time></trkpt><trkpt lat="-24.983860506506318" lon="-53.42776402820564"><ele>733.0</ele><time>2026-03-29T14:03:37.945Z</time></trkpt><trkpt lat="-24.983981221478192" lon="-53.42780324140885"><ele>732.0</ele><time>2026-03-29T14:03:38.945Z</time></trkpt><trkpt lat="-24.98409575003787" lon="-53.427835373063424"><ele>731.5</ele><time>2026-03-29T14:03:39.945Z</time></trkpt><trkpt lat="-24.984212507119057" lon="-53.427870018869086"><ele>731.0</ele><time>2026-03-29T14:03:40.945Z</time></trkpt><trkpt lat="-24.984322548597756" lon="-53.427902753398"><ele>730.5</ele><time>2026-03-29T14:03:41.945Z</time></trkpt><trkpt lat="-24.984431172078615" lon="-53.427927474326246"><ele>730.0</ele><time>2026-03-29T14:03:42.945Z</time></trkpt><trkpt lat="-24.984546473020938" lon="-53.42796951639497"><ele>729.25</ele><time>2026-03-29T14:03:43.945Z</time></trkpt><trkpt lat="-24.98465727296363" lon="-53.42800724706034"><ele>728.5</ele><time>2026-03-29T14:03:44.945Z</time></trkpt><trkpt lat="-24.98476975770426" lon="-53.42804388288147"><ele>727.75</ele><time>2026-03-29T14:03:45.945Z</time></trkpt><trkpt lat="-24.98488142013018" lon="-53.42807520088257"><ele>727.0</ele><time>2026-03-29T14:03:46.945Z</time></trkpt><trkpt lat="-24.98499285903553" lon="-53.428106081248345"><ele>726.8</ele><time>2026-03-29T14:03:47.945Z</time></trkpt><trkpt lat="-24.985094096031204" lon="-53.428138294649656"><ele>726.6</ele><time>2026-03-29T14:03:48.945Z</time></trkpt><trkpt lat="-24.98519743275058" lon="-53.42816811844543"><ele>726.4</ele><time>2026-03-29T14:03:49.945Z</time></trkpt><trkpt lat="-24.985292758670866" lon="-53.42819790396947"><ele>726.1999999999999</ele><time>2026-03-29T14:03:50.945Z</time></trkpt><trkpt lat="-24.98537807768488" lon="-53.4282221150969"><ele>726.0</ele><time>2026-03-29T14:03:51.945Z</time></trkpt><trkpt lat="-24.985452817546264" lon="-53.42824603029103"><ele>726.0</ele><time>2026-03-29T14:03:52.945Z</time></trkpt><trkpt lat="-24.985520087839554" lon="-53.42826363868429"><ele>726.0</ele><time>2026-03-29T14:03:53.945Z</time></trkpt><trkpt lat="-24.985585555600082" lon="-53.42828409981132"><ele>726.0</ele><time>2026-03-29T14:03:54.945Z</time></trkpt><trkpt lat="-24.985685622507557" lon="-53.42835082366561"><ele>726.0</ele><time>2026-03-29T14:03:56.945Z</time></trkpt><trkpt lat="-24.985701756415917" lon="-53.42851539646429"><ele>726.0</ele><time>2026-03-29T14:03:58.945Z</time></trkpt><trkpt lat="-24.985715139106407" lon="-53.428628218079425"><ele>726.0</ele><time>2026-03-29T14:03:59.945Z</time></trkpt><trkpt lat="-24.98570799379065" lon="-53.42875510126849"><ele>726.0</ele><time>2026-03-29T14:04:00.945Z</time></trkpt><trkpt lat="-24.98570370893472" lon="-53.428895793584786"><ele>726.0</ele><time>2026-03-29T14:04:01.945Z</time></trkpt><trkpt lat="-24.98569952209482" lon="-53.429050027407875"><ele>726.0</ele><time>2026-03-29T14:04:02.945Z</time></trkpt><trkpt lat="-24.98569723101764" lon="-53.429206856623416"><ele>724.3333333333334</ele><time>2026-03-29T14:04:03.945Z</time></trkpt><trkpt lat="-24.98569536147209" lon="-53.42937183946558"><ele>722.6666666666667</ele><time>2026-03-29T14:04:04.945Z</time></trkpt><trkpt lat="-24.985692414587803" lon="-53.429543371177516"><ele>721.0</ele><time>2026-03-29T14:04:05.945Z</time></trkpt><trkpt lat="-24.985689841446312" lon="-53.42972342960964"><ele>719.3333333333334</ele><time>2026-03-29T14:04:06.945Z</time></trkpt><trkpt lat="-24.98568938293921" lon="-53.42989916192093"><ele>717.6666666666666</ele><time>2026-03-29T14:04:07.945Z</time></trkpt><trkpt lat="-24.98568588589081" lon="-53.43007899263949"><ele>716.0</ele><time>2026-03-29T14:04:08.945Z</time></trkpt><trkpt lat="-24.985679291951914" lon="-53.43026037215051"><ele>716.0</ele><time>2026-03-29T14:04:09.945Z</time></trkpt><trkpt lat="-24.98567611680551" lon="-53.430443410185696"><ele>716.0</ele><time>2026-03-29T14:04:10.945Z</time></trkpt><trkpt lat="-24.985674864374094" lon="-53.43062283779196"><ele>716.0</ele><time>2026-03-29T14:04:11.945Z</time></trkpt><trkpt lat="-24.98567249883075" lon="-53.430800009840596"><ele>714.6666666666666</ele><time>2026-03-29T14:04:12.945Z</time></trkpt><trkpt lat="-24.985670622558917" lon="-53.43097606605798"><ele>713.3333333333334</ele><time>2026-03-29T14:04:13.945Z</time></trkpt><trkpt lat="-24.985669050843907" lon="-53.43115202191782"><ele>712.0</ele><time>2026-03-29T14:04:14.945Z</time></trkpt><trkpt lat="-24.98566796241119" lon="-53.43132823597181"><ele>711.75</ele><time>2026-03-29T14:04:15.945Z</time></trkpt><trkpt lat="-24.985666533134832" lon="-53.4314984388317"><ele>711.5</ele><time>2026-03-29T14:04:16.945Z</time></trkpt><trkpt lat="-24.98566353044911" lon="-53.43166501486807"><ele>711.25</ele><time>2026-03-29T14:04:17.945Z</time></trkpt><trkpt lat="-24.98566017280163" lon="-53.43182402688895"><ele>711.0</ele><time>2026-03-29T14:04:18.945Z</time></trkpt><trkpt lat="-24.985658885865078" lon="-53.431976463835404"><ele>711.0</ele><time>2026-03-29T14:04:19.945Z</time></trkpt><trkpt lat="-24.985659844449774" lon="-53.43212564451048"><ele>711.0</ele><time>2026-03-29T14:04:20.945Z</time></trkpt><trkpt lat="-24.985663590295577" lon="-53.43227861235764"><ele>711.0</ele><time>2026-03-29T14:04:21.945Z</time></trkpt><trkpt lat="-24.98565995474558" lon="-53.43242937429084"><ele>711.0</ele><time>2026-03-29T14:04:22.945Z</time></trkpt><trkpt lat="-24.985658182652838" lon="-53.432578493954615"><ele>709.25</ele><time>2026-03-29T14:04:23.945Z</time></trkpt><trkpt lat="-24.985653425540576" lon="-53.43272991606244"><ele>707.5</ele><time>2026-03-29T14:04:24.945Z</time></trkpt><trkpt lat="-24.985652473065375" lon="-53.43287968412628"><ele>705.75</ele><time>2026-03-29T14:04:25.945Z</time></trkpt><trkpt lat="-24.98564966102058" lon="-53.43302905568236"><ele>704.0</ele><time>2026-03-29T14:04:26.945Z</time></trkpt><trkpt lat="-24.98564373160421" lon="-53.43318206567518"><ele>701.25</ele><time>2026-03-29T14:04:27.945Z</time></trkpt><trkpt lat="-24.98563953520967" lon="-53.43333371375149"><ele>698.5</ele><time>2026-03-29T14:04:28.945Z</time></trkpt><trkpt lat="-24.98563773373556" lon="-53.43348553553287"><ele>695.75</ele><time>2026-03-29T14:04:29.945Z</time></trkpt><trkpt lat="-24.985634588516913" lon="-53.43363893125224"><ele>693.0</ele><time>2026-03-29T14:04:30.945Z</time></trkpt><trkpt lat="-24.985634105516638" lon="-53.43379229178358"><ele>688.25</ele><time>2026-03-29T14:04:31.945Z</time></trkpt><trkpt lat="-24.98563331588766" lon="-53.43394975812759"><ele>683.5</ele><time>2026-03-29T14:04:32.945Z</time></trkpt><trkpt lat="-24.985627386417864" lon="-53.43411158195484"><ele>678.75</ele><time>2026-03-29T14:04:33.945Z</time></trkpt><trkpt lat="-24.9856235647332" lon="-53.434272022913724"><ele>674.0</ele><time>2026-03-29T14:04:34.945Z</time></trkpt><trkpt lat="-24.98562257308018" lon="-53.434430842915816"><ele>674.0</ele><time>2026-03-29T14:04:35.945Z</time></trkpt><trkpt lat="-24.985626152672186" lon="-53.434585264280855"><ele>674.0</ele><time>2026-03-29T14:04:36.945Z</time></trkpt><trkpt lat="-24.985634261787457" lon="-53.43474443230447"><ele>674.0</ele><time>2026-03-29T14:04:37.945Z</time></trkpt><trkpt lat="-24.985645991964397" lon="-53.43490989588349"><ele>674.0</ele><time>2026-03-29T14:04:38.945Z</time></trkpt><trkpt lat="-24.98565993779326" lon="-53.43507429726014"><ele>670.25</ele><time>2026-03-29T14:04:39.945Z</time></trkpt><trkpt lat="-24.985681058561443" lon="-53.435232365162776"><ele>666.5</ele><time>2026-03-29T14:04:40.945Z</time></trkpt><trkpt lat="-24.985700468976262" lon="-53.43538323532676"><ele>662.75</ele><time>2026-03-29T14:04:41.945Z</time></trkpt><trkpt lat="-24.9857075949561" lon="-53.43553266580781"><ele>659.0</ele><time>2026-03-29T14:04:42.946Z</time></trkpt><trkpt lat="-24.985725640598833" lon="-53.43569365744314"><ele>659.0</ele><time>2026-03-29T14:04:43.945Z</time></trkpt><trkpt lat="-24.98574781111985" lon="-53.43584019202324"><ele>659.0</ele><time>2026-03-29T14:04:44.945Z</time></trkpt><trkpt lat="-24.985745183500566" lon="-53.43601133259555"><ele>659.0</ele><time>2026-03-29T14:04:45.945Z</time></trkpt><trkpt lat="-24.98575756183085" lon="-53.436180246998596"><ele>659.0</ele><time>2026-03-29T14:04:46.945Z</time></trkpt><trkpt lat="-24.98576893091178" lon="-53.43635642587039"><ele>663.0</ele><time>2026-03-29T14:04:47.945Z</time></trkpt><trkpt lat="-24.985775143603604" lon="-53.43653106079842"><ele>667.0</ele><time>2026-03-29T14:04:48.945Z</time></trkpt><trkpt lat="-24.98578564359521" lon="-53.4366982400988"><ele>671.0</ele><time>2026-03-29T14:04:49.945Z</time></trkpt><trkpt lat="-24.98580363325338" lon="-53.43687188163846"><ele>671.0</ele><time>2026-03-29T14:04:50.945Z</time></trkpt><trkpt lat="-24.985816181166914" lon="-53.43704652936082"><ele>671.0</ele><time>2026-03-29T14:04:51.945Z</time></trkpt><trkpt lat="-24.985831456183718" lon="-53.437225458709555"><ele>671.0</ele><time>2026-03-29T14:04:52.945Z</time></trkpt><trkpt lat="-24.985842045209278" lon="-53.43740248448215"><ele>675.6666666666666</ele><time>2026-03-29T14:04:53.945Z</time></trkpt><trkpt lat="-24.98585825742377" lon="-53.43757381563216"><ele>680.3333333333334</ele><time>2026-03-29T14:04:54.945Z</time></trkpt><trkpt lat="-24.985869913450127" lon="-53.4377813508617"><ele>685.0</ele><time>2026-03-29T14:04:55.945Z</time></trkpt><trkpt lat="-24.985884448700215" lon="-53.43796588791053"><ele>688.0</ele><time>2026-03-29T14:04:56.945Z</time></trkpt><trkpt lat="-24.98590158936793" lon="-53.43815538142112"><ele>691.0</ele><time>2026-03-29T14:04:57.945Z</time></trkpt><trkpt lat="-24.985911832204966" lon="-53.43834352441112"><ele>694.0</ele><time>2026-03-29T14:04:58.945Z</time></trkpt><trkpt lat="-24.98592960082749" lon="-53.438529340304164"><ele>694.0</ele><time>2026-03-29T14:04:59.945Z</time></trkpt><trkpt lat="-24.985942055768344" lon="-53.43871851386624"><ele>694.0</ele><time>2026-03-29T14:05:00.945Z</time></trkpt><trkpt lat="-24.985952732733022" lon="-53.43889955882995"><ele>694.0</ele><time>2026-03-29T14:05:01.945Z</time></trkpt><trkpt lat="-24.985968731514394" lon="-53.439071956752564"><ele>696.0</ele><time>2026-03-29T14:05:02.945Z</time></trkpt><trkpt lat="-24.985982920537907" lon="-53.43923495159938"><ele>698.0</ele><time>2026-03-29T14:05:03.945Z</time></trkpt><trkpt lat="-24.985997705164767" lon="-53.43939092519629"><ele>700.0</ele><time>2026-03-29T14:05:04.945Z</time></trkpt><trkpt lat="-24.98600803884585" lon="-53.43954758569019"><ele>702.0</ele><time>2026-03-29T14:05:05.945Z</time></trkpt><trkpt lat="-24.986019196224053" lon="-53.439704595340686"><ele>703.75</ele><time>2026-03-29T14:05:06.945Z</time></trkpt><trkpt lat="-24.9860302661894" lon="-53.4398525739212"><ele>705.5</ele><time>2026-03-29T14:05:07.945Z</time></trkpt><trkpt lat="-24.986044488205284" lon="-53.439998545339606"><ele>707.25</ele><time>2026-03-29T14:05:08.945Z</time></trkpt><trkpt lat="-24.98605608654387" lon="-53.44015490984956"><ele>709.0</ele><time>2026-03-29T14:05:09.945Z</time></trkpt><trkpt lat="-24.986065512998604" lon="-53.44031497527145"><ele>710.0</ele><time>2026-03-29T14:05:10.945Z</time></trkpt><trkpt lat="-24.986080532133382" lon="-53.440468847755206"><ele>711.0</ele><time>2026-03-29T14:05:11.945Z</time></trkpt><trkpt lat="-24.98609623406517" lon="-53.44062581513726"><ele>712.0</ele><time>2026-03-29T14:05:12.945Z</time></trkpt><trkpt lat="-24.98610952809354" lon="-53.44078791245019"><ele>713.0</ele><time>2026-03-29T14:05:13.945Z</time></trkpt><trkpt lat="-24.986126175688813" lon="-53.4409464471133"><ele>713.0</ele><time>2026-03-29T14:05:14.945Z</time></trkpt><trkpt lat="-24.986144175081733" lon="-53.441102866269965"><ele>713.0</ele><time>2026-03-29T14:05:15.945Z</time></trkpt><trkpt lat="-24.98616064943787" lon="-53.44125755014982"><ele>713.0</ele><time>2026-03-29T14:05:16.945Z</time></trkpt><trkpt lat="-24.986174727074786" lon="-53.44140633252426"><ele>713.0</ele><time>2026-03-29T14:05:17.945Z</time></trkpt><trkpt lat="-24.98618277327221" lon="-53.441537716883126"><ele>714.0</ele><time>2026-03-29T14:05:18.945Z</time></trkpt><trkpt lat="-24.98618438312965" lon="-53.441657064226455"><ele>715.0</ele><time>2026-03-29T14:05:19.945Z</time></trkpt><trkpt lat="-24.986196635630083" lon="-53.441753616306485"><ele>716.0</ele><time>2026-03-29T14:05:20.945Z</time></trkpt><trkpt lat="-24.98619511590905" lon="-53.44183692393261"><ele>717.0</ele><time>2026-03-29T14:05:21.945Z</time></trkpt><trkpt lat="-24.986203173729773" lon="-53.441940639858004"><ele>718.0</ele><time>2026-03-29T14:05:23.945Z</time></trkpt><trkpt lat="-24.986406044043527" lon="-53.44191320917731"><ele>718.0</ele><time>2026-03-29T14:05:25.945Z</time></trkpt><trkpt lat="-24.98648683249509" lon="-53.441916238462504"><ele>718.0</ele><time>2026-03-29T14:05:26.945Z</time></trkpt><trkpt lat="-24.986567281788687" lon="-53.441897175210734"><ele>718.0</ele><time>2026-03-29T14:05:27.945Z</time></trkpt><trkpt lat="-24.986655152048762" lon="-53.44189338715053"><ele>718.0</ele><time>2026-03-29T14:05:28.945Z</time></trkpt><trkpt lat="-24.98674642383392" lon="-53.44188099823861"><ele>718.0</ele><time>2026-03-29T14:05:29.945Z</time></trkpt><trkpt lat="-24.98684344755023" lon="-53.44186311973365"><ele>718.0</ele><time>2026-03-29T14:05:30.945Z</time></trkpt><trkpt lat="-24.98694571928425" lon="-53.441848567450805"><ele>718.4</ele><time>2026-03-29T14:05:31.945Z</time></trkpt><trkpt lat="-24.987042497593915" lon="-53.441843305625504"><ele>718.8</ele><time>2026-03-29T14:05:32.945Z</time></trkpt><trkpt lat="-24.987148756475253" lon="-53.44183569783119"><ele>719.2</ele><time>2026-03-29T14:05:33.945Z</time></trkpt><trkpt lat="-24.98725819799998" lon="-53.44182595387877"><ele>719.6</ele><time>2026-03-29T14:05:34.945Z</time></trkpt><trkpt lat="-24.987387990571477" lon="-53.44181289241724"><ele>720.0</ele><time>2026-03-29T14:05:35.945Z</time></trkpt><trkpt lat="-24.98751618047082" lon="-53.44179476645326"><ele>720.5</ele><time>2026-03-29T14:05:36.945Z</time></trkpt><trkpt lat="-24.987658974465404" lon="-53.44178410631834"><ele>721.0</ele><time>2026-03-29T14:05:37.945Z</time></trkpt><trkpt lat="-24.987803349059824" lon="-53.44176958216899"><ele>721.5</ele><time>2026-03-29T14:05:38.945Z</time></trkpt><trkpt lat="-24.987951253368866" lon="-53.44175579704587"><ele>722.0</ele><time>2026-03-29T14:05:39.945Z</time></trkpt><trkpt lat="-24.98809899397946" lon="-53.44174702310474"><ele>722.0</ele><time>2026-03-29T14:05:40.945Z</time></trkpt><trkpt lat="-24.988244241123372" lon="-53.44173715591268"><ele>722.0</ele><time>2026-03-29T14:05:41.945Z</time></trkpt><trkpt lat="-24.98839152102424" lon="-53.44172464010551"><ele>722.0</ele><time>2026-03-29T14:05:42.945Z</time></trkpt><trkpt lat="-24.988536396873183" lon="-53.44170549299776"><ele>722.0</ele><time>2026-03-29T14:05:43.945Z</time></trkpt><trkpt lat="-24.98868263258102" lon="-53.44169186294703"><ele>722.25</ele><time>2026-03-29T14:05:44.945Z</time></trkpt><trkpt lat="-24.988825456531654" lon="-53.441674756453985"><ele>722.5</ele><time>2026-03-29T14:05:45.945Z</time></trkpt><trkpt lat="-24.98896304537779" lon="-53.441659485892934"><ele>722.75</ele><time>2026-03-29T14:05:46.945Z</time></trkpt><trkpt lat="-24.98908794969565" lon="-53.441648193414686"><ele>723.0</ele><time>2026-03-29T14:05:47.945Z</time></trkpt><trkpt lat="-24.98919623565068" lon="-53.441644025522"><ele>723.4</ele><time>2026-03-29T14:05:48.945Z</time></trkpt><trkpt lat="-24.989290363452938" lon="-53.44163407698725"><ele>723.8</ele><time>2026-03-29T14:05:49.945Z</time></trkpt><trkpt lat="-24.98937156325161" lon="-53.44163172889941"><ele>724.2</ele><time>2026-03-29T14:05:50.945Z</time></trkpt><trkpt lat="-24.98943747496599" lon="-53.44163024047902"><ele>724.6</ele><time>2026-03-29T14:05:51.945Z</time></trkpt><trkpt lat="-24.98956097405554" lon="-53.44162440917463"><ele>725.0</ele><time>2026-03-29T14:05:53.945Z</time></trkpt><trkpt lat="-24.989646321063255" lon="-53.44161663010131"><ele>725.0</ele><time>2026-03-29T14:05:54.945Z</time></trkpt><trkpt lat="-24.989745372817335" lon="-53.441605028065034"><ele>725.0</ele><time>2026-03-29T14:05:55.945Z</time></trkpt><trkpt lat="-24.989859473025682" lon="-53.441596271526876"><ele>725.0</ele><time>2026-03-29T14:05:56.945Z</time></trkpt><trkpt lat="-24.989982022658626" lon="-53.441583424319845"><ele>725.0</ele><time>2026-03-29T14:05:57.945Z</time></trkpt><trkpt lat="-24.990112707934678" lon="-53.441568120042525"><ele>725.5</ele><time>2026-03-29T14:05:58.945Z</time></trkpt><trkpt lat="-24.990246506243423" lon="-53.44155525695148"><ele>726.0</ele><time>2026-03-29T14:05:59.945Z</time></trkpt><trkpt lat="-24.990383302955273" lon="-53.44154142135959"><ele>726.5</ele><time>2026-03-29T14:06:00.945Z</time></trkpt><trkpt lat="-24.990517252949594" lon="-53.441529096318064"><ele>727.0</ele><time>2026-03-29T14:06:01.945Z</time></trkpt><trkpt lat="-24.990637584831653" lon="-53.441525657336896"><ele>727.0</ele><time>2026-03-29T14:06:02.945Z</time></trkpt><trkpt lat="-24.99074410011522" lon="-53.44151922803552"><ele>727.0</ele><time>2026-03-29T14:06:03.945Z</time></trkpt><trkpt lat="-24.99083212952851" lon="-53.44150809609478"><ele>727.0</ele><time>2026-03-29T14:06:04.945Z</time></trkpt><trkpt lat="-24.990898967682753" lon="-53.44150608244786"><ele>727.0</ele><time>2026-03-29T14:06:05.945Z</time></trkpt><trkpt lat="-24.991019555276193" lon="-53.4414959926454"><ele>727.0</ele><time>2026-03-29T14:06:07.945Z</time></trkpt><trkpt lat="-24.991099965474227" lon="-53.44149105298711"><ele>727.25</ele><time>2026-03-29T14:06:08.945Z</time></trkpt><trkpt lat="-24.99119991464327" lon="-53.441479793582154"><ele>727.5</ele><time>2026-03-29T14:06:09.945Z</time></trkpt><trkpt lat="-24.99130916829543" lon="-53.4414628225306"><ele>727.75</ele><time>2026-03-29T14:06:10.945Z</time></trkpt><trkpt lat="-24.991435744003045" lon="-53.44145058517843"><ele>728.0</ele><time>2026-03-29T14:06:11.945Z</time></trkpt><trkpt lat="-24.991566263996216" lon="-53.44143944655242"><ele>727.8333333333333</ele><time>2026-03-29T14:06:12.945Z</time></trkpt><trkpt lat="-24.991683045690856" lon="-53.44143130154748"><ele>727.6666666666666</ele><time>2026-03-29T14:06:13.945Z</time></trkpt><trkpt lat="-24.991773555708924" lon="-53.441428139022335"><ele>727.5</ele><time>2026-03-29T14:06:14.945Z</time></trkpt><trkpt lat="-24.991844728697952" lon="-53.44142891258868"><ele>727.3333333333334</ele><time>2026-03-29T14:06:15.945Z</time></trkpt><trkpt lat="-24.991909063003824" lon="-53.44142492689744"><ele>727.1666666666667</ele><time>2026-03-29T14:06:16.945Z</time></trkpt><trkpt lat="-24.99199086246783" lon="-53.44141602102549"><ele>727.0</ele><time>2026-03-29T14:06:17.945Z</time></trkpt><trkpt lat="-24.99208362959726" lon="-53.44140291085517"><ele>727.0</ele><time>2026-03-29T14:06:18.945Z</time></trkpt><trkpt lat="-24.992189885038062" lon="-53.441388754261574"><ele>727.0</ele><time>2026-03-29T14:06:19.945Z</time></trkpt><trkpt lat="-24.992303622376216" lon="-53.44137590364973"><ele>727.0</ele><time>2026-03-29T14:06:20.945Z</time></trkpt><trkpt lat="-24.992420376113994" lon="-53.44136770657284"><ele>727.0</ele><time>2026-03-29T14:06:21.945Z</time></trkpt><trkpt lat="-24.992536552505996" lon="-53.44136874854579"><ele>724.8</ele><time>2026-03-29T14:06:22.945Z</time></trkpt><trkpt lat="-24.99265017319583" lon="-53.44136481804147"><ele>722.6</ele><time>2026-03-29T14:06:23.945Z</time></trkpt><trkpt lat="-24.992758215421244" lon="-53.44136007982254"><ele>720.4</ele><time>2026-03-29T14:06:24.945Z</time></trkpt><trkpt lat="-24.992859255509646" lon="-53.44135232075434"><ele>718.1999999999999</ele><time>2026-03-29T14:06:25.945Z</time></trkpt><trkpt lat="-24.992954795293244" lon="-53.44134234242242"><ele>716.0</ele><time>2026-03-29T14:06:26.945Z</time></trkpt><trkpt lat="-24.993046090423995" lon="-53.441336091117265"><ele>716.0</ele><time>2026-03-29T14:06:27.945Z</time></trkpt><trkpt lat="-24.99313526481383" lon="-53.44132843034458"><ele>716.0</ele><time>2026-03-29T14:06:28.945Z</time></trkpt><trkpt lat="-24.993231747609002" lon="-53.44131924564906"><ele>716.0</ele><time>2026-03-29T14:06:29.945Z</time></trkpt><trkpt lat="-24.993336635606926" lon="-53.44131393643134"><ele>716.0</ele><time>2026-03-29T14:06:30.945Z</time></trkpt><trkpt lat="-24.99343823003326" lon="-53.441305969381375"><ele>716.0</ele><time>2026-03-29T14:06:31.945Z</time></trkpt><trkpt lat="-24.993533966442364" lon="-53.441293603183425"><ele>716.0</ele><time>2026-03-29T14:06:32.945Z</time></trkpt><trkpt lat="-24.993626929442048" lon="-53.44128537017097"><ele>716.0</ele><time>2026-03-29T14:06:33.945Z</time></trkpt><trkpt lat="-24.99372020794398" lon="-53.441275872644134"><ele>716.0</ele><time>2026-03-29T14:06:34.945Z</time></trkpt><trkpt lat="-24.99381596471759" lon="-53.44126515228703"><ele>716.0</ele><time>2026-03-29T14:06:35.945Z</time></trkpt><trkpt lat="-24.993911026838397" lon="-53.44125133558375"><ele>716.0</ele><time>2026-03-29T14:06:36.945Z</time></trkpt><trkpt lat="-24.994006337297805" lon="-53.44123998944952"><ele>716.0</ele><time>2026-03-29T14:06:37.945Z</time></trkpt><trkpt lat="-24.99410839155622" lon="-53.44123013741131"><ele>716.0</ele><time>2026-03-29T14:06:38.945Z</time></trkpt><trkpt lat="-24.994217503959756" lon="-53.4412258638657"><ele>716.0</ele><time>2026-03-29T14:06:39.945Z</time></trkpt><trkpt lat="-24.994324471139752" lon="-53.44122005538242"><ele>716.0</ele><time>2026-03-29T14:06:40.945Z</time></trkpt><trkpt lat="-24.99442895357103" lon="-53.44121014361157"><ele>716.0</ele><time>2026-03-29T14:06:41.945Z</time></trkpt><trkpt lat="-24.994530065750407" lon="-53.441199740275096"><ele>712.0</ele><time>2026-03-29T14:06:42.945Z</time></trkpt><trkpt lat="-24.99462948200582" lon="-53.44120703248544"><ele>708.0</ele><time>2026-03-29T14:06:43.945Z</time></trkpt><trkpt lat="-24.994708947488473" lon="-53.441198454292305"><ele>704.0</ele><time>2026-03-29T14:06:44.945Z</time></trkpt><trkpt lat="-24.994773846924765" lon="-53.44119671534475"><ele>700.0</ele><time>2026-03-29T14:06:45.945Z</time></trkpt><trkpt lat="-24.994874403135938" lon="-53.44120620187617"><ele>696.0</ele><time>2026-03-29T14:06:47.945Z</time></trkpt><trkpt lat="-24.99489023724691" lon="-53.441354566891356"><ele>693.5</ele><time>2026-03-29T14:06:49.945Z</time></trkpt><trkpt lat="-24.994866761141477" lon="-53.4414542098144"><ele>691.0</ele><time>2026-03-29T14:06:50.945Z</time></trkpt><trkpt lat="-24.99484081802848" lon="-53.441575138053075"><ele>688.5</ele><time>2026-03-29T14:06:51.946Z</time></trkpt><trkpt lat="-24.99480868933314" lon="-53.4417227481195"><ele>686.0</ele><time>2026-03-29T14:06:52.945Z</time></trkpt><trkpt lat="-24.994767233751837" lon="-53.44188217753115"><ele>686.0</ele><time>2026-03-29T14:06:53.945Z</time></trkpt><trkpt lat="-24.9947202684083" lon="-53.442062141701996"><ele>686.0</ele><time>2026-03-29T14:06:54.945Z</time></trkpt><trkpt lat="-24.994677132065352" lon="-53.44224663989383"><ele>686.0</ele><time>2026-03-29T14:06:55.945Z</time></trkpt><trkpt lat="-24.99464269287251" lon="-53.442412065166955"><ele>684.5</ele><time>2026-03-29T14:06:56.945Z</time></trkpt><trkpt lat="-24.994610583006576" lon="-53.442568906953845"><ele>683.0</ele><time>2026-03-29T14:06:57.945Z</time></trkpt><trkpt lat="-24.99457678915402" lon="-53.4427122909367"><ele>681.5</ele><time>2026-03-29T14:06:58.946Z</time></trkpt><trkpt lat="-24.994543918681263" lon="-53.44284772198279"><ele>680.0</ele><time>2026-03-29T14:06:59.946Z</time></trkpt><trkpt lat="-24.994510196865853" lon="-53.44298662740872"><ele>679.6</ele><time>2026-03-29T14:07:00.945Z</time></trkpt><trkpt lat="-24.994482551257015" lon="-53.443114274942104"><ele>679.2</ele><time>2026-03-29T14:07:01.945Z</time></trkpt><trkpt lat="-24.99445403364663" lon="-53.443236484112354"><ele>678.8</ele><time>2026-03-29T14:07:02.945Z</time></trkpt><trkpt lat="-24.994423037882225" lon="-53.44335362803054"><ele>678.4</ele><time>2026-03-29T14:07:03.945Z</time></trkpt><trkpt lat="-24.99439312026787" lon="-53.44346259711327"><ele>678.0</ele><time>2026-03-29T14:07:04.945Z</time></trkpt><trkpt lat="-24.994368174846027" lon="-53.44356552710398"><ele>678.0</ele><time>2026-03-29T14:07:05.945Z</time></trkpt><trkpt lat="-24.99435173273078" lon="-53.44365223243122"><ele>678.0</ele><time>2026-03-29T14:07:06.945Z</time></trkpt><trkpt lat="-24.99434784732488" lon="-53.44372656214699"><ele>678.0</ele><time>2026-03-29T14:07:07.945Z</time></trkpt><trkpt lat="-24.99435183368042" lon="-53.44379853229832"><ele>678.0</ele><time>2026-03-29T14:07:08.945Z</time></trkpt><trkpt lat="-24.9943196991168" lon="-53.443869391432685"><ele>678.0</ele><time>2026-03-29T14:07:09.945Z</time></trkpt><trkpt lat="-24.994400989429963" lon="-53.44396021969018"><ele>678.0</ele><time>2026-03-29T14:07:10.945Z</time></trkpt><trkpt lat="-24.99444003429386" lon="-53.44402763041929"><ele>678.0</ele><time>2026-03-29T14:07:11.945Z</time></trkpt><trkpt lat="-24.994500470955337" lon="-53.44408292679756"><ele>678.0</ele><time>2026-03-29T14:07:12.945Z</time></trkpt><trkpt lat="-24.9945672095608" lon="-53.44411519689347"><ele>678.0</ele><time>2026-03-29T14:07:13.945Z</time></trkpt><trkpt lat="-24.994637419615856" lon="-53.444124318494794"><ele>678.0</ele><time>2026-03-29T14:07:14.945Z</time></trkpt><trkpt lat="-24.994712024448926" lon="-53.44412100189739"><ele>678.0</ele><time>2026-03-29T14:07:15.945Z</time></trkpt><trkpt lat="-24.994813043223527" lon="-53.44410385752217"><ele>678.0</ele><time>2026-03-29T14:07:16.945Z</time></trkpt><trkpt lat="-24.99492465167907" lon="-53.44405672575264"><ele>677.4</ele><time>2026-03-29T14:07:17.945Z</time></trkpt><trkpt lat="-24.995039399878753" lon="-53.444009636250705"><ele>676.8</ele><time>2026-03-29T14:07:18.945Z</time></trkpt><trkpt lat="-24.995147387916866" lon="-53.443965131098544"><ele>676.2</ele><time>2026-03-29T14:07:19.945Z</time></trkpt><trkpt lat="-24.995242784379418" lon="-53.44392303343275"><ele>675.6</ele><time>2026-03-29T14:07:20.945Z</time></trkpt><trkpt lat="-24.995331213000213" lon="-53.44388811286065"><ele>675.0</ele><time>2026-03-29T14:07:21.945Z</time></trkpt><trkpt lat="-24.99539743427015" lon="-53.44382516751725"><ele>675.0</ele><time>2026-03-29T14:07:23.945Z</time></trkpt><trkpt lat="-24.995299186346898" lon="-53.44377374395875"><ele>675.0</ele><time>2026-03-29T14:07:25.945Z</time></trkpt><trkpt lat="-24.99520881227509" lon="-53.44377460238012"><ele>675.0</ele><time>2026-03-29T14:07:26.945Z</time></trkpt><trkpt lat="-24.99512579478749" lon="-53.443780769997616"><ele>675.0</ele><time>2026-03-29T14:07:27.945Z</time></trkpt><trkpt lat="-24.995077945615805" lon="-53.44382841196574"><ele>675.0</ele><time>2026-03-29T14:07:29.945Z</time></trkpt><trkpt lat="-24.99514727315075" lon="-53.44385982081409"><ele>675.0</ele><time>2026-03-29T14:07:30.946Z</time></trkpt><trkpt lat="-24.995228095834094" lon="-53.4438557177485"><ele>675.0</ele><time>2026-03-29T14:07:32.946Z</time></trkpt><trkpt lat="-24.995151055811057" lon="-53.443925203887225"><ele>675.0</ele><time>2026-03-29T14:07:34.945Z</time></trkpt><trkpt lat="-24.995067024819885" lon="-53.44389976891917"><ele>675.0</ele><time>2026-03-29T14:07:35.945Z</time></trkpt><trkpt lat="-24.994951279794535" lon="-53.44385128597868"><ele>675.0</ele><time>2026-03-29T14:07:36.945Z</time></trkpt><trkpt lat="-24.99484720646048" lon="-53.44380996327094"><ele>675.0</ele><time>2026-03-29T14:07:37.945Z</time></trkpt><trkpt lat="-24.994779832629046" lon="-53.4437869449696"><ele>675.5</ele><time>2026-03-29T14:07:38.945Z</time></trkpt><trkpt lat="-24.994753314082686" lon="-53.44385542319637"><ele>676.0</ele><time>2026-03-29T14:07:40.945Z</time></trkpt><trkpt lat="-24.994817223893936" lon="-53.443886696650864"><ele>676.5</ele><time>2026-03-29T14:07:41.945Z</time></trkpt><trkpt lat="-24.99489425878586" lon="-53.44390230875913"><ele>677.0</ele><time>2026-03-29T14:07:42.945Z</time></trkpt><trkpt lat="-24.994908633503616" lon="-53.4440113457292"><ele>677.5</ele><time>2026-03-29T14:07:44.945Z</time></trkpt><trkpt lat="-24.994843162629046" lon="-53.44404196422097"><ele>678.0</ele><time>2026-03-29T14:07:45.945Z</time></trkpt><trkpt lat="-24.99480463828466" lon="-53.443985789593405"><ele>678.0</ele><time>2026-03-29T14:07:46.945Z</time></trkpt><trkpt lat="-24.994750856337593" lon="-53.443918541613236"><ele>678.0</ele><time>2026-03-29T14:07:47.945Z</time></trkpt><trkpt lat="-24.994669437418498" lon="-53.44385598003881"><ele>678.0</ele><time>2026-03-29T14:07:48.945Z</time></trkpt><trkpt lat="-24.994595958323675" lon="-53.44380856117621"><ele>678.0</ele><time>2026-03-29T14:07:49.945Z</time></trkpt><trkpt lat="-24.99452814435161" lon="-53.443771616185266"><ele>678.0</ele><time>2026-03-29T14:07:50.945Z</time></trkpt><trkpt lat="-24.994439449715095" lon="-53.44382125983595"><ele>678.0</ele><time>2026-03-29T14:07:52.945Z</time></trkpt><trkpt lat="-24.994436364732287" lon="-53.44391338088166"><ele>678.0</ele><time>2026-03-29T14:07:53.945Z</time></trkpt><trkpt lat="-24.994441374894336" lon="-53.44401043602543"><ele>678.0</ele><time>2026-03-29T14:07:54.945Z</time></trkpt><trkpt lat="-24.994427472795124" lon="-53.44408264160376"><ele>678.0</ele><time>2026-03-29T14:07:55.945Z</time></trkpt><trkpt lat="-24.994451958980758" lon="-53.444158825149636"><ele>678.0</ele><time>2026-03-29T14:07:57.945Z</time></trkpt><trkpt lat="-24.994426837235892" lon="-53.4442389870546"><ele>678.0</ele><time>2026-03-29T14:08:01.945Z</time></trkpt><trkpt lat="-24.99435116410739" lon="-53.4442416258827"><ele>678.0</ele><time>2026-03-29T14:08:03.945Z</time></trkpt><trkpt lat="-24.994314762427027" lon="-53.444174608991766"><ele>678.0</ele><time>2026-03-29T14:08:05.945Z</time></trkpt><trkpt lat="-24.99436382546317" lon="-53.44413051928336"><ele>678.0</ele><time>2026-03-29T14:08:07.945Z</time></trkpt></trkseg></trk></gpx>